<?xml version='1.0' encoding='UTF-8'?><gpx version="1.1" creator="JPX - https://github.com/jenetics/jpx" xmlns="http://www.topografix.com/GPX/1/1"><trk><trkseg><trkpt lat="43.7784255" lon="11.200858"><ele>39.0</ele><time>2026-04-02T16:29:05.906Z</time></trkpt><trkpt lat="43.7784294" lon="11.2009541"><ele>39.0</ele><time>2026-04-02T16:29:23.907Z</time></trkpt><trkpt lat="43.7784059" lon="11.2010548"><ele>39.0</ele><time>2026-04-02T16:29:27.906Z</time></trkpt><trkpt lat="43.778383" lon="11.2011598"><ele>39.0</ele><time>2026-04-02T16:29:30.907Z</time></trkpt><trkpt lat="43.7783558" lon="11.2012831"><ele>39.0</ele><time>2026-04-02T16:29:33.907Z</time></trkpt><trkpt lat="43.7783348" lon="11.2013738"><ele>39.0</ele><time>2026-04-02T16:29:35.906Z</time></trkpt><trkpt lat="43.7783153" lon="11.2014651"><ele>39.142857142857146</ele><time>2026-04-02T16:29:38.906Z</time></trkpt><trkpt lat="43.7782898" lon="11.2015786"><ele>39.285714285714285</ele><time>2026-04-02T16:29:42.906Z</time></trkpt><trkpt lat="43.7782661" lon="11.2016871"><ele>39.42857142857143</ele><time>2026-04-02T16:29:45.906Z</time></trkpt><trkpt lat="43.7782444" lon="11.2017844"><ele>39.57142857142857</ele><time>2026-04-02T16:29:48.906Z</time></trkpt><trkpt lat="43.7782254" lon="11.2018684"><ele>39.714285714285715</ele><time>2026-04-02T16:29:50.906Z</time></trkpt><trkpt lat="43.778205" lon="11.201965"><ele>39.857142857142854</ele><time>2026-04-02T16:29:52.906Z</time></trkpt><trkpt lat="43.778185" lon="11.202055"><ele>40.0</ele><time>2026-04-02T16:29:54.907Z</time></trkpt><trkpt lat="43.7781617" lon="11.202155"><ele>40.0</ele><time>2026-04-02T16:29:56.907Z</time></trkpt><trkpt lat="43.7781383" lon="11.2022533"><ele>40.0</ele><time>2026-04-02T16:29:58.907Z</time></trkpt><trkpt lat="43.778115" lon="11.2023533"><ele>40.0</ele><time>2026-04-02T16:30:00.907Z</time></trkpt><trkpt lat="43.7780933" lon="11.202445"><ele>40.0</ele><time>2026-04-02T16:30:02.907Z</time></trkpt><trkpt lat="43.7780683" lon="11.2025567"><ele>40.0</ele><time>2026-04-02T16:30:04.906Z</time></trkpt><trkpt lat="43.7780417" lon="11.202655"><ele>40.0</ele><time>2026-04-02T16:30:06.906Z</time></trkpt><trkpt lat="43.778015" lon="11.202755"><ele>40.0</ele><time>2026-04-02T16:30:08.906Z</time></trkpt><trkpt lat="43.7779867" lon="11.202855"><ele>40.0</ele><time>2026-04-02T16:30:10.907Z</time></trkpt><trkpt lat="43.7779567" lon="11.20296"><ele>40.0</ele><time>2026-04-02T16:30:12.907Z</time></trkpt><trkpt lat="43.777925" lon="11.2030433"><ele>40.0</ele><time>2026-04-02T16:30:14.906Z</time></trkpt><trkpt lat="43.777895" lon="11.20314"><ele>40.0</ele><time>2026-04-02T16:30:16.907Z</time></trkpt><trkpt lat="43.7778767" lon="11.203255"><ele>40.0</ele><time>2026-04-02T16:30:18.906Z</time></trkpt><trkpt lat="43.7778617" lon="11.2033633"><ele>40.0</ele><time>2026-04-02T16:30:20.906Z</time></trkpt><trkpt lat="43.77784" lon="11.20347"><ele>40.0</ele><time>2026-04-02T16:30:22.906Z</time></trkpt><trkpt lat="43.7778267" lon="11.2036083"><ele>40.0</ele><time>2026-04-02T16:30:25.907Z</time></trkpt><trkpt lat="43.777795" lon="11.20371"><ele>40.0</ele><time>2026-04-02T16:30:27.907Z</time></trkpt><trkpt lat="43.7777467" lon="11.2038183"><ele>40.0</ele><time>2026-04-02T16:30:29.906Z</time></trkpt><trkpt lat="43.7776867" lon="11.2039233"><ele>40.0</ele><time>2026-04-02T16:30:31.906Z</time></trkpt><trkpt lat="43.777655" lon="11.2040017"><ele>40.0</ele><time>2026-04-02T16:30:33.907Z</time></trkpt><trkpt lat="43.77762" lon="11.20408"><ele>40.0</ele><time>2026-04-02T16:30:35.906Z</time></trkpt><trkpt lat="43.777575" lon="11.2041833"><ele>40.0</ele><time>2026-04-02T16:30:37.907Z</time></trkpt><trkpt lat="43.77754" lon="11.2042883"><ele>40.0</ele><time>2026-04-02T16:30:39.906Z</time></trkpt><trkpt lat="43.777505" lon="11.2043867"><ele>40.0</ele><time>2026-04-02T16:30:41.906Z</time></trkpt><trkpt lat="43.7774667" lon="11.2045033"><ele>40.0</ele><time>2026-04-02T16:30:43.907Z</time></trkpt><trkpt lat="43.77743" lon="11.2046133"><ele>40.0</ele><time>2026-04-02T16:30:45.906Z</time></trkpt><trkpt lat="43.7773983" lon="11.20472"><ele>40.0</ele><time>2026-04-02T16:30:47.906Z</time></trkpt><trkpt lat="43.7773767" lon="11.2048317"><ele>40.0</ele><time>2026-04-02T16:30:49.906Z</time></trkpt><trkpt lat="43.777405" lon="11.204965"><ele>40.0</ele><time>2026-04-02T16:30:52.907Z</time></trkpt><trkpt lat="43.7774433" lon="11.20506"><ele>40.0</ele><time>2026-04-02T16:30:54.906Z</time></trkpt><trkpt lat="43.7774767" lon="11.2051567"><ele>40.0</ele><time>2026-04-02T16:30:56.906Z</time></trkpt><trkpt lat="43.77749" lon="11.2052617"><ele>40.0</ele><time>2026-04-02T16:30:59.906Z</time></trkpt><trkpt lat="43.777465" lon="11.2053833"><ele>40.0</ele><time>2026-04-02T16:31:02.906Z</time></trkpt><trkpt lat="43.777435" lon="11.2054667"><ele>40.0</ele><time>2026-04-02T16:31:04.906Z</time></trkpt><trkpt lat="43.7774167" lon="11.2055767"><ele>40.0</ele><time>2026-04-02T16:31:06.906Z</time></trkpt><trkpt lat="43.7774317" lon="11.2056917"><ele>40.0</ele><time>2026-04-02T16:31:09.906Z</time></trkpt><trkpt lat="43.7774383" lon="11.2057867"><ele>40.0</ele><time>2026-04-02T16:31:11.906Z</time></trkpt><trkpt lat="43.7774783" lon="11.2058883"><ele>40.0</ele><time>2026-04-02T16:31:14.906Z</time></trkpt><trkpt lat="43.7775417" lon="11.20592"><ele>40.0</ele><time>2026-04-02T16:31:17.907Z</time></trkpt><trkpt lat="43.7776067" lon="11.2059033"><ele>40.0</ele><time>2026-04-02T16:31:19.906Z</time></trkpt><trkpt lat="43.77767" lon="11.2058833"><ele>40.0</ele><time>2026-04-02T16:31:21.905Z</time></trkpt><trkpt lat="43.7777333" lon="11.2058533"><ele>40.0</ele><time>2026-04-02T16:31:23.906Z</time></trkpt><trkpt lat="43.7778" lon="11.20583"><ele>40.0</ele><time>2026-04-02T16:31:25.906Z</time></trkpt><trkpt lat="43.7778633" lon="11.2058033"><ele>40.0</ele><time>2026-04-02T16:31:27.905Z</time></trkpt><trkpt lat="43.777945" lon="11.2057533"><ele>40.16666666666667</ele><time>2026-04-02T16:31:30.905Z</time></trkpt><trkpt lat="43.77803" lon="11.2057"><ele>40.333333333333336</ele><time>2026-04-02T16:31:33.905Z</time></trkpt><trkpt lat="43.7781" lon="11.2056667"><ele>40.5</ele><time>2026-04-02T16:31:35.906Z</time></trkpt><trkpt lat="43.778165" lon="11.2055833"><ele>40.666666666666664</ele><time>2026-04-02T16:31:38.905Z</time></trkpt><trkpt lat="43.7782483" lon="11.2055483"><ele>40.83333333333333</ele><time>2026-04-02T16:31:40.905Z</time></trkpt><trkpt lat="43.7783117" lon="11.2055183"><ele>41.0</ele><time>2026-04-02T16:31:42.905Z</time></trkpt><trkpt lat="43.7783933" lon="11.2054767"><ele>41.0</ele><time>2026-04-02T16:31:44.905Z</time></trkpt><trkpt lat="43.778485" lon="11.2054433"><ele>41.0</ele><time>2026-04-02T16:31:46.905Z</time></trkpt><trkpt lat="43.778565" lon="11.2054117"><ele>41.0</ele><time>2026-04-02T16:31:48.905Z</time></trkpt><trkpt lat="43.7786483" lon="11.2053767"><ele>41.0</ele><time>2026-04-02T16:31:50.906Z</time></trkpt><trkpt lat="43.778735" lon="11.2053433"><ele>41.0</ele><time>2026-04-02T16:31:52.906Z</time></trkpt><trkpt lat="43.7788183" lon="11.2053"><ele>41.0</ele><time>2026-04-02T16:31:54.905Z</time></trkpt><trkpt lat="43.77889" lon="11.2052567"><ele>41.0</ele><time>2026-04-02T16:31:56.905Z</time></trkpt><trkpt lat="43.77896" lon="11.2052283"><ele>41.0</ele><time>2026-04-02T16:31:58.905Z</time></trkpt><trkpt lat="43.7790533" lon="11.205175"><ele>41.0</ele><time>2026-04-02T16:32:01.905Z</time></trkpt><trkpt lat="43.7791333" lon="11.205145"><ele>41.0</ele><time>2026-04-02T16:32:03.905Z</time></trkpt><trkpt lat="43.7792033" lon="11.20511"><ele>41.0</ele><time>2026-04-02T16:32:05.905Z</time></trkpt><trkpt lat="43.7792717" lon="11.2050767"><ele>41.0</ele><time>2026-04-02T16:32:07.906Z</time></trkpt><trkpt lat="43.7793517" lon="11.2050317"><ele>40.33333333333333</ele><time>2026-04-02T16:32:10.905Z</time></trkpt><trkpt lat="43.77942" lon="11.2049933"><ele>39.666666666666664</ele><time>2026-04-02T16:32:13.906Z</time></trkpt><trkpt lat="43.779465" lon="11.2049217"><ele>39.0</ele><time>2026-04-02T16:32:18.905Z</time></trkpt><trkpt lat="43.779535" lon="11.20493"><ele>38.333333333333336</ele><time>2026-04-02T16:32:25.905Z</time></trkpt><trkpt lat="43.7796033" lon="11.204945"><ele>37.66666666666667</ele><time>2026-04-02T16:32:28.905Z</time></trkpt><trkpt lat="43.77968" lon="11.2049667"><ele>37.0</ele><time>2026-04-02T16:32:31.905Z</time></trkpt><trkpt lat="43.77977" lon="11.20498"><ele>37.0</ele><time>2026-04-02T16:32:34.905Z</time></trkpt><trkpt lat="43.77984" lon="11.2049417"><ele>37.0</ele><time>2026-04-02T16:32:36.905Z</time></trkpt><trkpt lat="43.779915" lon="11.2049083"><ele>37.0</ele><time>2026-04-02T16:32:38.905Z</time></trkpt><trkpt lat="43.779985" lon="11.2048783"><ele>37.0</ele><time>2026-04-02T16:32:40.905Z</time></trkpt><trkpt lat="43.7800717" lon="11.2048583"><ele>37.0</ele><time>2026-04-02T16:32:42.905Z</time></trkpt><trkpt lat="43.780175" lon="11.204825"><ele>37.0</ele><time>2026-04-02T16:32:44.905Z</time></trkpt><trkpt lat="43.7802617" lon="11.2047917"><ele>37.142857142857146</ele><time>2026-04-02T16:32:46.906Z</time></trkpt><trkpt lat="43.78032" lon="11.2047583"><ele>37.285714285714285</ele><time>2026-04-02T16:32:48.905Z</time></trkpt><trkpt lat="43.780405" lon="11.2047367"><ele>37.42857142857143</ele><time>2026-04-02T16:32:50.905Z</time></trkpt><trkpt lat="43.7804683" lon="11.2047183"><ele>37.57142857142857</ele><time>2026-04-02T16:32:52.905Z</time></trkpt><trkpt lat="43.7805417" lon="11.2046983"><ele>37.714285714285715</ele><time>2026-04-02T16:32:54.905Z</time></trkpt><trkpt lat="43.7806083" lon="11.2046667"><ele>37.857142857142854</ele><time>2026-04-02T16:32:56.905Z</time></trkpt><trkpt lat="43.7806733" lon="11.2046367"><ele>38.0</ele><time>2026-04-02T16:32:58.905Z</time></trkpt><trkpt lat="43.7807533" lon="11.2046117"><ele>38.0</ele><time>2026-04-02T16:33:00.905Z</time></trkpt><trkpt lat="43.7808183" lon="11.20459"><ele>38.0</ele><time>2026-04-02T16:33:02.905Z</time></trkpt><trkpt lat="43.7808983" lon="11.2045717"><ele>38.0</ele><time>2026-04-02T16:33:04.905Z</time></trkpt><trkpt lat="43.78098" lon="11.2045517"><ele>38.0</ele><time>2026-04-02T16:33:06.906Z</time></trkpt><trkpt lat="43.7810433" lon="11.2045317"><ele>38.0</ele><time>2026-04-02T16:33:08.905Z</time></trkpt><trkpt lat="43.78112" lon="11.2045167"><ele>38.0</ele><time>2026-04-02T16:33:10.905Z</time></trkpt><trkpt lat="43.7812217" lon="11.2045"><ele>38.199999999999996</ele><time>2026-04-02T16:33:12.906Z</time></trkpt><trkpt lat="43.7813317" lon="11.2044867"><ele>38.4</ele><time>2026-04-02T16:33:14.905Z</time></trkpt><trkpt lat="43.78143" lon="11.2044567"><ele>38.599999999999994</ele><time>2026-04-02T16:33:16.905Z</time></trkpt><trkpt lat="43.7815267" lon="11.2044333"><ele>38.8</ele><time>2026-04-02T16:33:18.905Z</time></trkpt><trkpt lat="43.781605" lon="11.2044167"><ele>39.0</ele><time>2026-04-02T16:33:20.906Z</time></trkpt><trkpt lat="43.781675" lon="11.2044517"><ele>39.0</ele><time>2026-04-02T16:33:22.905Z</time></trkpt><trkpt lat="43.7817433" lon="11.204495"><ele>39.0</ele><time>2026-04-02T16:33:24.905Z</time></trkpt><trkpt lat="43.781815" lon="11.2045367"><ele>39.0</ele><time>2026-04-02T16:33:27.905Z</time></trkpt><trkpt lat="43.7818783" lon="11.2045367"><ele>39.0</ele><time>2026-04-02T16:33:31.905Z</time></trkpt><trkpt lat="43.7819683" lon="11.204545"><ele>39.0</ele><time>2026-04-02T16:33:55.905Z</time></trkpt><trkpt lat="43.78204" lon="11.2045567"><ele>39.0</ele><time>2026-04-02T16:34:01.905Z</time></trkpt><trkpt lat="43.7820517" lon="11.2046533"><ele>39.0</ele><time>2026-04-02T16:34:04.905Z</time></trkpt><trkpt lat="43.78205" lon="11.2047617"><ele>39.0</ele><time>2026-04-02T16:34:08.905Z</time></trkpt><trkpt lat="43.7821133" lon="11.2046917"><ele>39.0</ele><time>2026-04-02T16:34:15.905Z</time></trkpt><trkpt lat="43.7821467" lon="11.2045667"><ele>39.0</ele><time>2026-04-02T16:34:17.906Z</time></trkpt><trkpt lat="43.7821667" lon="11.2044283"><ele>39.0</ele><time>2026-04-02T16:34:19.906Z</time></trkpt><trkpt lat="43.7821833" lon="11.2042983"><ele>39.0</ele><time>2026-04-02T16:34:21.906Z</time></trkpt><trkpt lat="43.7822033" lon="11.204175"><ele>39.0</ele><time>2026-04-02T16:34:23.905Z</time></trkpt><trkpt lat="43.7822333" lon="11.2040633"><ele>39.0</ele><time>2026-04-02T16:34:25.905Z</time></trkpt><trkpt lat="43.7822833" lon="11.20397"><ele>39.0</ele><time>2026-04-02T16:34:27.905Z</time></trkpt><trkpt lat="43.78234" lon="11.2039217"><ele>39.0</ele><time>2026-04-02T16:34:29.905Z</time></trkpt><trkpt lat="43.7824217" lon="11.2039367"><ele>39.0</ele><time>2026-04-02T16:34:31.905Z</time></trkpt><trkpt lat="43.7825017" lon="11.20396"><ele>39.0</ele><time>2026-04-02T16:34:33.905Z</time></trkpt><trkpt lat="43.7825767" lon="11.2039933"><ele>39.0</ele><time>2026-04-02T16:34:35.906Z</time></trkpt><trkpt lat="43.782645" lon="11.2040167"><ele>39.0</ele><time>2026-04-02T16:34:37.905Z</time></trkpt><trkpt lat="43.78272" lon="11.2040483"><ele>39.0</ele><time>2026-04-02T16:34:39.906Z</time></trkpt><trkpt lat="43.7828083" lon="11.20408"><ele>39.0</ele><time>2026-04-02T16:34:41.905Z</time></trkpt><trkpt lat="43.782895" lon="11.2041117"><ele>39.0</ele><time>2026-04-02T16:34:43.906Z</time></trkpt><trkpt lat="43.7829683" lon="11.2041317"><ele>39.0</ele><time>2026-04-02T16:34:45.905Z</time></trkpt><trkpt lat="43.7830633" lon="11.2041617"><ele>39.166666666666664</ele><time>2026-04-02T16:34:47.905Z</time></trkpt><trkpt lat="43.7831567" lon="11.2042017"><ele>39.333333333333336</ele><time>2026-04-02T16:34:49.905Z</time></trkpt><trkpt lat="43.7832433" lon="11.204235"><ele>39.5</ele><time>2026-04-02T16:34:51.905Z</time></trkpt><trkpt lat="43.78332" lon="11.2042633"><ele>39.66666666666667</ele><time>2026-04-02T16:34:53.905Z</time></trkpt><trkpt lat="43.783405" lon="11.20428"><ele>39.833333333333336</ele><time>2026-04-02T16:34:55.905Z</time></trkpt><trkpt lat="43.7834917" lon="11.2042967"><ele>40.0</ele><time>2026-04-02T16:34:57.905Z</time></trkpt><trkpt lat="43.7835833" lon="11.2043167"><ele>40.0</ele><time>2026-04-02T16:34:59.905Z</time></trkpt><trkpt lat="43.78367" lon="11.204345"><ele>40.0</ele><time>2026-04-02T16:35:01.905Z</time></trkpt><trkpt lat="43.7837517" lon="11.204375"><ele>40.0</ele><time>2026-04-02T16:35:03.905Z</time></trkpt><trkpt lat="43.7838267" lon="11.2044083"><ele>40.0</ele><time>2026-04-02T16:35:05.905Z</time></trkpt><trkpt lat="43.783905" lon="11.2044467"><ele>40.0</ele><time>2026-04-02T16:35:07.905Z</time></trkpt><trkpt lat="43.7839633" lon="11.20448"><ele>40.0</ele><time>2026-04-02T16:35:09.906Z</time></trkpt><trkpt lat="43.7840433" lon="11.2045133"><ele>40.0</ele><time>2026-04-02T16:35:11.905Z</time></trkpt><trkpt lat="43.7841183" lon="11.204555"><ele>40.0</ele><time>2026-04-02T16:35:13.905Z</time></trkpt><trkpt lat="43.7841817" lon="11.2045933"><ele>40.0</ele><time>2026-04-02T16:35:15.905Z</time></trkpt><trkpt lat="43.7842617" lon="11.20462"><ele>40.0</ele><time>2026-04-02T16:35:17.906Z</time></trkpt><trkpt lat="43.7843283" lon="11.2046483"><ele>40.0</ele><time>2026-04-02T16:35:19.905Z</time></trkpt><trkpt lat="43.7844033" lon="11.2046833"><ele>40.0</ele><time>2026-04-02T16:35:21.905Z</time></trkpt><trkpt lat="43.7844767" lon="11.2047083"><ele>40.0</ele><time>2026-04-02T16:35:23.905Z</time></trkpt><trkpt lat="43.784565" lon="11.2047433"><ele>40.0</ele><time>2026-04-02T16:35:25.905Z</time></trkpt><trkpt lat="43.784645" lon="11.2047733"><ele>40.0</ele><time>2026-04-02T16:35:27.905Z</time></trkpt><trkpt lat="43.78472" lon="11.2048033"><ele>40.0</ele><time>2026-04-02T16:35:29.905Z</time></trkpt><trkpt lat="43.7848283" lon="11.2048483"><ele>40.0</ele><time>2026-04-02T16:35:32.906Z</time></trkpt><trkpt lat="43.7849133" lon="11.2048817"><ele>39.833333333333336</ele><time>2026-04-02T16:35:34.906Z</time></trkpt><trkpt lat="43.78498" lon="11.20492"><ele>39.66666666666667</ele><time>2026-04-02T16:35:36.905Z</time></trkpt><trkpt lat="43.7849867" lon="11.2050483"><ele>39.5</ele><time>2026-04-02T16:35:39.906Z</time></trkpt><trkpt lat="43.784955" lon="11.205145"><ele>39.333333333333336</ele><time>2026-04-02T16:35:42.905Z</time></trkpt><trkpt lat="43.7849233" lon="11.2052583"><ele>39.166666666666664</ele><time>2026-04-02T16:35:45.906Z</time></trkpt><trkpt lat="43.7848867" lon="11.2053817"><ele>39.0</ele><time>2026-04-02T16:35:48.905Z</time></trkpt><trkpt lat="43.7848533" lon="11.2054817"><ele>39.0</ele><time>2026-04-02T16:35:51.905Z</time></trkpt><trkpt lat="43.78481" lon="11.2055567"><ele>39.0</ele><time>2026-04-02T16:35:53.905Z</time></trkpt><trkpt lat="43.7847717" lon="11.2056467"><ele>39.0</ele><time>2026-04-02T16:35:55.906Z</time></trkpt><trkpt lat="43.7847217" lon="11.205745"><ele>39.0</ele><time>2026-04-02T16:35:57.905Z</time></trkpt><trkpt lat="43.784685" lon="11.205825"><ele>39.0</ele><time>2026-04-02T16:35:59.905Z</time></trkpt><trkpt lat="43.7846367" lon="11.2059417"><ele>39.0</ele><time>2026-04-02T16:36:01.905Z</time></trkpt><trkpt lat="43.7845817" lon="11.2060383"><ele>39.166666666666664</ele><time>2026-04-02T16:36:03.906Z</time></trkpt><trkpt lat="43.78454" lon="11.2061317"><ele>39.333333333333336</ele><time>2026-04-02T16:36:05.905Z</time></trkpt><trkpt lat="43.784495" lon="11.2062417"><ele>39.5</ele><time>2026-04-02T16:36:07.906Z</time></trkpt><trkpt lat="43.7844583" lon="11.2063267"><ele>39.66666666666667</ele><time>2026-04-02T16:36:09.905Z</time></trkpt><trkpt lat="43.7843983" lon="11.2064317"><ele>39.833333333333336</ele><time>2026-04-02T16:36:11.905Z</time></trkpt><trkpt lat="43.7843417" lon="11.2065367"><ele>40.0</ele><time>2026-04-02T16:36:13.905Z</time></trkpt><trkpt lat="43.7842817" lon="11.20667"><ele>40.0</ele><time>2026-04-02T16:36:15.905Z</time></trkpt><trkpt lat="43.7842267" lon="11.20677"><ele>40.0</ele><time>2026-04-02T16:36:17.905Z</time></trkpt><trkpt lat="43.7841717" lon="11.2069017"><ele>40.0</ele><time>2026-04-02T16:36:19.905Z</time></trkpt><trkpt lat="43.7841183" lon="11.2070283"><ele>40.0</ele><time>2026-04-02T16:36:21.906Z</time></trkpt><trkpt lat="43.78407" lon="11.2071267"><ele>40.0</ele><time>2026-04-02T16:36:23.905Z</time></trkpt><trkpt lat="43.7840283" lon="11.2072333"><ele>39.66666666666667</ele><time>2026-04-02T16:36:25.905Z</time></trkpt><trkpt lat="43.7839833" lon="11.20735"><ele>39.333333333333336</ele><time>2026-04-02T16:36:27.905Z</time></trkpt><trkpt lat="43.7839283" lon="11.20747"><ele>39.0</ele><time>2026-04-02T16:36:29.905Z</time></trkpt><trkpt lat="43.78387" lon="11.207585"><ele>38.666666666666664</ele><time>2026-04-02T16:36:32.906Z</time></trkpt><trkpt lat="43.78384" lon="11.2076717"><ele>38.33333333333333</ele><time>2026-04-02T16:36:34.905Z</time></trkpt><trkpt lat="43.7838133" lon="11.2077533"><ele>38.0</ele><time>2026-04-02T16:36:36.905Z</time></trkpt><trkpt lat="43.7837683" lon="11.2078667"><ele>38.0</ele><time>2026-04-02T16:36:39.906Z</time></trkpt><trkpt lat="43.7837283" lon="11.207975"><ele>38.0</ele><time>2026-04-02T16:36:42.905Z</time></trkpt><trkpt lat="43.7837033" lon="11.208095"><ele>38.0</ele><time>2026-04-02T16:36:46.906Z</time></trkpt><trkpt lat="43.7836783" lon="11.208185"><ele>38.0</ele><time>2026-04-02T16:36:48.906Z</time></trkpt><trkpt lat="43.7836233" lon="11.2082867"><ele>38.0</ele><time>2026-04-02T16:36:51.906Z</time></trkpt><trkpt lat="43.7835783" lon="11.20837"><ele>38.0</ele><time>2026-04-02T16:36:53.906Z</time></trkpt><trkpt lat="43.7835367" lon="11.2084567"><ele>38.199999999999996</ele><time>2026-04-02T16:36:55.906Z</time></trkpt><trkpt lat="43.7834817" lon="11.20857"><ele>38.4</ele><time>2026-04-02T16:36:57.906Z</time></trkpt><trkpt lat="43.783445" lon="11.2087017"><ele>38.599999999999994</ele><time>2026-04-02T16:36:59.906Z</time></trkpt><trkpt lat="43.78342" lon="11.20881"><ele>38.8</ele><time>2026-04-02T16:37:01.905Z</time></trkpt><trkpt lat="43.7833917" lon="11.2089367"><ele>39.0</ele><time>2026-04-02T16:37:03.905Z</time></trkpt><trkpt lat="43.78337" lon="11.2090467"><ele>39.0</ele><time>2026-04-02T16:37:05.905Z</time></trkpt><trkpt lat="43.7833433" lon="11.2091683"><ele>39.0</ele><time>2026-04-02T16:37:07.905Z</time></trkpt><trkpt lat="43.783305" lon="11.2092967"><ele>39.0</ele><time>2026-04-02T16:37:09.905Z</time></trkpt><trkpt lat="43.7832617" lon="11.2093967"><ele>39.0</ele><time>2026-04-02T16:37:11.906Z</time></trkpt><trkpt lat="43.7832033" lon="11.2095067"><ele>39.0</ele><time>2026-04-02T16:37:13.905Z</time></trkpt><trkpt lat="43.78315" lon="11.209595"><ele>39.0</ele><time>2026-04-02T16:37:15.905Z</time></trkpt><trkpt lat="43.7830983" lon="11.2096933"><ele>39.0</ele><time>2026-04-02T16:37:17.906Z</time></trkpt><trkpt lat="43.7830533" lon="11.2097717"><ele>39.0</ele><time>2026-04-02T16:37:19.906Z</time></trkpt><trkpt lat="43.7830017" lon="11.2098667"><ele>39.0</ele><time>2026-04-02T16:37:21.905Z</time></trkpt><trkpt lat="43.782965" lon="11.20997"><ele>39.0</ele><time>2026-04-02T16:37:23.905Z</time></trkpt><trkpt lat="43.7829183" lon="11.2100933"><ele>39.0</ele><time>2026-04-02T16:37:25.906Z</time></trkpt><trkpt lat="43.782885" lon="11.210175"><ele>39.166666666666664</ele><time>2026-04-02T16:37:27.905Z</time></trkpt><trkpt lat="43.7828433" lon="11.2102717"><ele>39.333333333333336</ele><time>2026-04-02T16:37:29.905Z</time></trkpt><trkpt lat="43.782795" lon="11.2103667"><ele>39.5</ele><time>2026-04-02T16:37:31.906Z</time></trkpt><trkpt lat="43.7827433" lon="11.2104533"><ele>39.66666666666667</ele><time>2026-04-02T16:37:33.905Z</time></trkpt><trkpt lat="43.7826967" lon="11.210535"><ele>39.833333333333336</ele><time>2026-04-02T16:37:35.905Z</time></trkpt><trkpt lat="43.78265" lon="11.2106117"><ele>40.0</ele><time>2026-04-02T16:37:37.905Z</time></trkpt><trkpt lat="43.7825933" lon="11.21071"><ele>39.25</ele><time>2026-04-02T16:37:39.905Z</time></trkpt><trkpt lat="43.78253" lon="11.2108233"><ele>38.5</ele><time>2026-04-02T16:37:41.905Z</time></trkpt><trkpt lat="43.78247" lon="11.2109633"><ele>37.75</ele><time>2026-04-02T16:37:43.906Z</time></trkpt><trkpt lat="43.7824183" lon="11.2111333"><ele>37.0</ele><time>2026-04-02T16:37:45.905Z</time></trkpt><trkpt lat="43.7823717" lon="11.2112633"><ele>37.0</ele><time>2026-04-02T16:37:47.906Z</time></trkpt><trkpt lat="43.7823317" lon="11.211385"><ele>37.0</ele><time>2026-04-02T16:37:49.905Z</time></trkpt><trkpt lat="43.78228" lon="11.211495"><ele>37.0</ele><time>2026-04-02T16:37:51.906Z</time></trkpt><trkpt lat="43.78224" lon="11.211585"><ele>37.0</ele><time>2026-04-02T16:37:53.905Z</time></trkpt><trkpt lat="43.7821983" lon="11.2116817"><ele>37.0</ele><time>2026-04-02T16:37:55.906Z</time></trkpt><trkpt lat="43.7821533" lon="11.2117733"><ele>37.0</ele><time>2026-04-02T16:37:57.905Z</time></trkpt><trkpt lat="43.782105" lon="11.2118683"><ele>36.333333333333336</ele><time>2026-04-02T16:37:59.905Z</time></trkpt><trkpt lat="43.7820583" lon="11.211965"><ele>35.66666666666667</ele><time>2026-04-02T16:38:01.905Z</time></trkpt><trkpt lat="43.78202" lon="11.21204"><ele>35.0</ele><time>2026-04-02T16:38:03.905Z</time></trkpt><trkpt lat="43.7819817" lon="11.2121317"><ele>34.333333333333336</ele><time>2026-04-02T16:38:05.905Z</time></trkpt><trkpt lat="43.7819483" lon="11.2122417"><ele>33.666666666666664</ele><time>2026-04-02T16:38:07.905Z</time></trkpt><trkpt lat="43.78192" lon="11.2123433"><ele>33.0</ele><time>2026-04-02T16:38:09.905Z</time></trkpt><trkpt lat="43.7818833" lon="11.21243"><ele>33.857142857142854</ele><time>2026-04-02T16:38:11.905Z</time></trkpt><trkpt lat="43.7818367" lon="11.2125467"><ele>34.714285714285715</ele><time>2026-04-02T16:38:14.905Z</time></trkpt><trkpt lat="43.781795" lon="11.212615"><ele>35.57142857142857</ele><time>2026-04-02T16:38:17.905Z</time></trkpt><trkpt lat="43.781765" lon="11.2126983"><ele>36.42857142857143</ele><time>2026-04-02T16:38:20.905Z</time></trkpt><trkpt lat="43.781725" lon="11.212775"><ele>37.285714285714285</ele><time>2026-04-02T16:38:23.906Z</time></trkpt><trkpt lat="43.7816783" lon="11.2128533"><ele>38.142857142857146</ele><time>2026-04-02T16:38:26.905Z</time></trkpt><trkpt lat="43.78163" lon="11.21294"><ele>39.0</ele><time>2026-04-02T16:38:29.905Z</time></trkpt><trkpt lat="43.7815867" lon="11.2130167"><ele>39.0</ele><time>2026-04-02T16:38:32.905Z</time></trkpt><trkpt lat="43.7815483" lon="11.21309"><ele>39.0</ele><time>2026-04-02T16:38:34.906Z</time></trkpt><trkpt lat="43.7814933" lon="11.2131917"><ele>39.0</ele><time>2026-04-02T16:38:37.905Z</time></trkpt><trkpt lat="43.7814483" lon="11.2132867"><ele>39.0</ele><time>2026-04-02T16:38:40.906Z</time></trkpt><trkpt lat="43.781415" lon="11.2133633"><ele>39.0</ele><time>2026-04-02T16:38:42.905Z</time></trkpt><trkpt lat="43.7813617" lon="11.2134717"><ele>39.0</ele><time>2026-04-02T16:38:45.906Z</time></trkpt><trkpt lat="43.781315" lon="11.2135783"><ele>39.166666666666664</ele><time>2026-04-02T16:38:48.905Z</time></trkpt><trkpt lat="43.781265" lon="11.213685"><ele>39.333333333333336</ele><time>2026-04-02T16:38:51.905Z</time></trkpt><trkpt lat="43.7812167" lon="11.2137783"><ele>39.5</ele><time>2026-04-02T16:38:54.905Z</time></trkpt><trkpt lat="43.78118" lon="11.21386"><ele>39.66666666666667</ele><time>2026-04-02T16:38:57.905Z</time></trkpt><trkpt lat="43.7811317" lon="11.2139417"><ele>39.833333333333336</ele><time>2026-04-02T16:39:00.906Z</time></trkpt><trkpt lat="43.7810717" lon="11.2140283"><ele>40.0</ele><time>2026-04-02T16:39:03.905Z</time></trkpt><trkpt lat="43.7810117" lon="11.2141217"><ele>40.0</ele><time>2026-04-02T16:39:06.905Z</time></trkpt><trkpt lat="43.780945" lon="11.2142183"><ele>40.0</ele><time>2026-04-02T16:39:09.905Z</time></trkpt><trkpt lat="43.7809" lon="11.2142983"><ele>40.0</ele><time>2026-04-02T16:39:11.905Z</time></trkpt><trkpt lat="43.7808533" lon="11.2143683"><ele>40.0</ele><time>2026-04-02T16:39:13.905Z</time></trkpt><trkpt lat="43.78081" lon="11.2144433"><ele>40.0</ele><time>2026-04-02T16:39:15.906Z</time></trkpt><trkpt lat="43.7807717" lon="11.21453"><ele>40.0</ele><time>2026-04-02T16:39:17.906Z</time></trkpt><trkpt lat="43.7807283" lon="11.2146283"><ele>40.0</ele><time>2026-04-02T16:39:19.906Z</time></trkpt><trkpt lat="43.780685" lon="11.2147283"><ele>40.0</ele><time>2026-04-02T16:39:21.905Z</time></trkpt><trkpt lat="43.7806417" lon="11.2148267"><ele>40.0</ele><time>2026-04-02T16:39:23.905Z</time></trkpt><trkpt lat="43.78062" lon="11.2149117"><ele>40.0</ele><time>2026-04-02T16:39:25.905Z</time></trkpt><trkpt lat="43.7805883" lon="11.2150017"><ele>40.0</ele><time>2026-04-02T16:39:28.905Z</time></trkpt><trkpt lat="43.78055" lon="11.2150817"><ele>40.0</ele><time>2026-04-02T16:39:31.905Z</time></trkpt><trkpt lat="43.7805117" lon="11.2151533"><ele>40.0</ele><time>2026-04-02T16:39:34.905Z</time></trkpt><trkpt lat="43.7804633" lon="11.2152117"><ele>39.833333333333336</ele><time>2026-04-02T16:39:37.905Z</time></trkpt><trkpt lat="43.7804217" lon="11.21528"><ele>39.66666666666667</ele><time>2026-04-02T16:39:39.906Z</time></trkpt><trkpt lat="43.78038" lon="11.2153617"><ele>39.5</ele><time>2026-04-02T16:39:41.905Z</time></trkpt><trkpt lat="43.78034" lon="11.21543"><ele>39.333333333333336</ele><time>2026-04-02T16:39:43.906Z</time></trkpt><trkpt lat="43.7802783" lon="11.2155567"><ele>39.166666666666664</ele><time>2026-04-02T16:39:46.905Z</time></trkpt><trkpt lat="43.7802267" lon="11.2156683"><ele>39.0</ele><time>2026-04-02T16:39:48.905Z</time></trkpt><trkpt lat="43.78018" lon="11.2157633"><ele>39.666666666666664</ele><time>2026-04-02T16:39:50.905Z</time></trkpt><trkpt lat="43.7801333" lon="11.2158483"><ele>40.333333333333336</ele><time>2026-04-02T16:39:52.906Z</time></trkpt><trkpt lat="43.7800867" lon="11.21593"><ele>41.0</ele><time>2026-04-02T16:39:54.905Z</time></trkpt><trkpt lat="43.7800317" lon="11.2160367"><ele>41.66666666666667</ele><time>2026-04-02T16:39:57.905Z</time></trkpt><trkpt lat="43.7799783" lon="11.2161433"><ele>42.333333333333336</ele><time>2026-04-02T16:40:00.905Z</time></trkpt><trkpt lat="43.7799367" lon="11.2162267"><ele>43.0</ele><time>2026-04-02T16:40:02.905Z</time></trkpt><trkpt lat="43.779895" lon="11.2163117"><ele>43.0</ele><time>2026-04-02T16:40:04.905Z</time></trkpt><trkpt lat="43.7798533" lon="11.2163917"><ele>43.0</ele><time>2026-04-02T16:40:06.905Z</time></trkpt><trkpt lat="43.779805" lon="11.216485"><ele>43.0</ele><time>2026-04-02T16:40:09.905Z</time></trkpt><trkpt lat="43.7797883" lon="11.2166017"><ele>43.0</ele><time>2026-04-02T16:40:11.905Z</time></trkpt><trkpt lat="43.7797933" lon="11.2167083"><ele>43.0</ele><time>2026-04-02T16:40:13.905Z</time></trkpt><trkpt lat="43.7797833" lon="11.2168"><ele>43.0</ele><time>2026-04-02T16:40:15.906Z</time></trkpt><trkpt lat="43.7797633" lon="11.2169067"><ele>42.66666666666667</ele><time>2026-04-02T16:40:17.905Z</time></trkpt><trkpt lat="43.779725" lon="11.217"><ele>42.333333333333336</ele><time>2026-04-02T16:40:19.905Z</time></trkpt><trkpt lat="43.779685" lon="11.21711"><ele>42.0</ele><time>2026-04-02T16:40:21.905Z</time></trkpt><trkpt lat="43.7796483" lon="11.2171867"><ele>41.666666666666664</ele><time>2026-04-02T16:40:23.905Z</time></trkpt><trkpt lat="43.7795933" lon="11.21728"><ele>41.33333333333333</ele><time>2026-04-02T16:40:25.906Z</time></trkpt><trkpt lat="43.779535" lon="11.217375"><ele>41.0</ele><time>2026-04-02T16:40:27.905Z</time></trkpt><trkpt lat="43.7795" lon="11.2175"><ele>40.75</ele><time>2026-04-02T16:40:29.905Z</time></trkpt><trkpt lat="43.779495" lon="11.217685"><ele>40.5</ele><time>2026-04-02T16:40:31.905Z</time></trkpt><trkpt lat="43.7794883" lon="11.2177833"><ele>40.25</ele><time>2026-04-02T16:40:32.905Z</time></trkpt><trkpt lat="43.77947" lon="11.218005"><ele>40.0</ele><time>2026-04-02T16:40:33.905Z</time></trkpt><trkpt lat="43.7794333" lon="11.218125"><ele>40.333333333333336</ele><time>2026-04-02T16:40:35.905Z</time></trkpt><trkpt lat="43.779395" lon="11.218235"><ele>40.66666666666667</ele><time>2026-04-02T16:40:37.905Z</time></trkpt><trkpt lat="43.77936" lon="11.2183533"><ele>41.0</ele><time>2026-04-02T16:40:39.906Z</time></trkpt><trkpt lat="43.7793233" lon="11.2184733"><ele>41.333333333333336</ele><time>2026-04-02T16:40:41.906Z</time></trkpt><trkpt lat="43.779285" lon="11.218565"><ele>41.666666666666664</ele><time>2026-04-02T16:40:43.905Z</time></trkpt><trkpt lat="43.7792283" lon="11.2186433"><ele>42.0</ele><time>2026-04-02T16:40:45.906Z</time></trkpt><trkpt lat="43.7791883" lon="11.2187117"><ele>42.0</ele><time>2026-04-02T16:40:47.905Z</time></trkpt><trkpt lat="43.7791433" lon="11.2187917"><ele>42.0</ele><time>2026-04-02T16:40:49.905Z</time></trkpt><trkpt lat="43.7790983" lon="11.2188783"><ele>42.0</ele><time>2026-04-02T16:40:51.905Z</time></trkpt><trkpt lat="43.7790567" lon="11.2189867"><ele>42.0</ele><time>2026-04-02T16:40:54.905Z</time></trkpt><trkpt lat="43.779015" lon="11.21908"><ele>42.0</ele><time>2026-04-02T16:40:56.905Z</time></trkpt><trkpt lat="43.7789783" lon="11.219175"><ele>42.0</ele><time>2026-04-02T16:40:58.905Z</time></trkpt><trkpt lat="43.7789417" lon="11.21927"><ele>42.0</ele><time>2026-04-02T16:41:00.906Z</time></trkpt><trkpt lat="43.7788983" lon="11.2193667"><ele>42.0</ele><time>2026-04-02T16:41:02.905Z</time></trkpt><trkpt lat="43.778855" lon="11.21947"><ele>42.0</ele><time>2026-04-02T16:41:04.905Z</time></trkpt><trkpt lat="43.77882" lon="11.2195733"><ele>42.0</ele><time>2026-04-02T16:41:06.905Z</time></trkpt><trkpt lat="43.7787717" lon="11.2196717"><ele>42.0</ele><time>2026-04-02T16:41:08.906Z</time></trkpt><trkpt lat="43.7787283" lon="11.2197667"><ele>42.0</ele><time>2026-04-02T16:41:10.905Z</time></trkpt><trkpt lat="43.7786783" lon="11.2198983"><ele>42.0</ele><time>2026-04-02T16:41:12.905Z</time></trkpt><trkpt lat="43.77864" lon="11.2200167"><ele>42.0</ele><time>2026-04-02T16:41:14.906Z</time></trkpt><trkpt lat="43.77861" lon="11.22012"><ele>42.0</ele><time>2026-04-02T16:41:16.905Z</time></trkpt><trkpt lat="43.778565" lon="11.2202467"><ele>42.0</ele><time>2026-04-02T16:41:18.905Z</time></trkpt><trkpt lat="43.778525" lon="11.2203733"><ele>42.0</ele><time>2026-04-02T16:41:20.905Z</time></trkpt><trkpt lat="43.7784833" lon="11.2204983"><ele>42.666666666666664</ele><time>2026-04-02T16:41:22.905Z</time></trkpt><trkpt lat="43.7784433" lon="11.2206067"><ele>43.333333333333336</ele><time>2026-04-02T16:41:24.905Z</time></trkpt><trkpt lat="43.7783983" lon="11.2207017"><ele>44.0</ele><time>2026-04-02T16:41:26.905Z</time></trkpt><trkpt lat="43.7783617" lon="11.22081"><ele>44.66666666666667</ele><time>2026-04-02T16:41:28.905Z</time></trkpt><trkpt lat="43.7783267" lon="11.220905"><ele>45.333333333333336</ele><time>2026-04-02T16:41:30.905Z</time></trkpt><trkpt lat="43.7782917" lon="11.2210033"><ele>46.0</ele><time>2026-04-02T16:41:32.905Z</time></trkpt><trkpt lat="43.7782517" lon="11.2210933"><ele>46.0</ele><time>2026-04-02T16:41:34.905Z</time></trkpt><trkpt lat="43.7782167" lon="11.22119"><ele>46.0</ele><time>2026-04-02T16:41:36.906Z</time></trkpt><trkpt lat="43.778175" lon="11.2212983"><ele>46.0</ele><time>2026-04-02T16:41:38.905Z</time></trkpt><trkpt lat="43.7781333" lon="11.2214"><ele>46.0</ele><time>2026-04-02T16:41:40.905Z</time></trkpt><trkpt lat="43.7781" lon="11.2214983"><ele>46.0</ele><time>2026-04-02T16:41:42.905Z</time></trkpt><trkpt lat="43.7780833" lon="11.2215883"><ele>46.0</ele><time>2026-04-02T16:41:44.905Z</time></trkpt><trkpt lat="43.7780917" lon="11.2217117"><ele>46.0</ele><time>2026-04-02T16:41:47.905Z</time></trkpt><trkpt lat="43.7780433" lon="11.22183"><ele>46.0</ele><time>2026-04-02T16:41:50.905Z</time></trkpt><trkpt lat="43.7780033" lon="11.22193"><ele>46.0</ele><time>2026-04-02T16:41:52.905Z</time></trkpt><trkpt lat="43.7779533" lon="11.222035"><ele>46.0</ele><time>2026-04-02T16:41:54.906Z</time></trkpt><trkpt lat="43.7779183" lon="11.222115"><ele>46.0</ele><time>2026-04-02T16:41:56.905Z</time></trkpt><trkpt lat="43.7778783" lon="11.2222033"><ele>46.0</ele><time>2026-04-02T16:41:58.905Z</time></trkpt><trkpt lat="43.77784" lon="11.222305"><ele>46.0</ele><time>2026-04-02T16:42:00.905Z</time></trkpt><trkpt lat="43.7778017" lon="11.2224067"><ele>46.0</ele><time>2026-04-02T16:42:02.906Z</time></trkpt><trkpt lat="43.7777617" lon="11.22253"><ele>46.0</ele><time>2026-04-02T16:42:04.905Z</time></trkpt><trkpt lat="43.77773" lon="11.2226233"><ele>46.0</ele><time>2026-04-02T16:42:06.905Z</time></trkpt><trkpt lat="43.7776967" lon="11.2227117"><ele>46.0</ele><time>2026-04-02T16:42:08.905Z</time></trkpt><trkpt lat="43.7776567" lon="11.2228317"><ele>46.0</ele><time>2026-04-02T16:42:10.906Z</time></trkpt><trkpt lat="43.7776117" lon="11.2229583"><ele>46.0</ele><time>2026-04-02T16:42:12.905Z</time></trkpt><trkpt lat="43.7775767" lon="11.2230767"><ele>46.0</ele><time>2026-04-02T16:42:14.905Z</time></trkpt><trkpt lat="43.77754" lon="11.2232133"><ele>46.0</ele><time>2026-04-02T16:42:16.905Z</time></trkpt><trkpt lat="43.777505" lon="11.223335"><ele>46.0</ele><time>2026-04-02T16:42:18.905Z</time></trkpt><trkpt lat="43.77747" lon="11.2234433"><ele>46.0</ele><time>2026-04-02T16:42:20.906Z</time></trkpt><trkpt lat="43.77743" lon="11.2235483"><ele>45.4</ele><time>2026-04-02T16:42:22.905Z</time></trkpt><trkpt lat="43.7773717" lon="11.2236417"><ele>44.8</ele><time>2026-04-02T16:42:24.905Z</time></trkpt><trkpt lat="43.7773117" lon="11.2237417"><ele>44.199999999999996</ele><time>2026-04-02T16:42:26.906Z</time></trkpt><trkpt lat="43.7772667" lon="11.223855"><ele>43.599999999999994</ele><time>2026-04-02T16:42:28.906Z</time></trkpt><trkpt lat="43.7772233" lon="11.223985"><ele>43.0</ele><time>2026-04-02T16:42:30.906Z</time></trkpt><trkpt lat="43.77719" lon="11.2241067"><ele>42.333333333333336</ele><time>2026-04-02T16:42:32.905Z</time></trkpt><trkpt lat="43.7771733" lon="11.2242133"><ele>41.66666666666667</ele><time>2026-04-02T16:42:34.906Z</time></trkpt><trkpt lat="43.7771983" lon="11.224325"><ele>41.0</ele><time>2026-04-02T16:42:36.905Z</time></trkpt><trkpt lat="43.777215" lon="11.2244467"><ele>40.333333333333336</ele><time>2026-04-02T16:42:38.906Z</time></trkpt><trkpt lat="43.7772067" lon="11.22457"><ele>39.666666666666664</ele><time>2026-04-02T16:42:40.905Z</time></trkpt><trkpt lat="43.7771817" lon="11.224675"><ele>39.0</ele><time>2026-04-02T16:42:42.905Z</time></trkpt><trkpt lat="43.77715" lon="11.2247817"><ele>39.6</ele><time>2026-04-02T16:42:44.905Z</time></trkpt><trkpt lat="43.7771083" lon="11.224905"><ele>40.2</ele><time>2026-04-02T16:42:46.906Z</time></trkpt><trkpt lat="43.777075" lon="11.2250267"><ele>40.800000000000004</ele><time>2026-04-02T16:42:48.905Z</time></trkpt><trkpt lat="43.777035" lon="11.225145"><ele>41.4</ele><time>2026-04-02T16:42:50.905Z</time></trkpt><trkpt lat="43.776995" lon="11.225255"><ele>42.0</ele><time>2026-04-02T16:42:52.906Z</time></trkpt><trkpt lat="43.7769583" lon="11.225355"><ele>42.0</ele><time>2026-04-02T16:42:54.905Z</time></trkpt><trkpt lat="43.7769217" lon="11.2254667"><ele>42.0</ele><time>2026-04-02T16:42:56.905Z</time></trkpt><trkpt lat="43.7768783" lon="11.225555"><ele>42.0</ele><time>2026-04-02T16:42:58.906Z</time></trkpt><trkpt lat="43.7768467" lon="11.225655"><ele>42.0</ele><time>2026-04-02T16:43:00.905Z</time></trkpt><trkpt lat="43.7768183" lon="11.2257683"><ele>42.0</ele><time>2026-04-02T16:43:02.906Z</time></trkpt><trkpt lat="43.77678" lon="11.225875"><ele>42.0</ele><time>2026-04-02T16:43:04.905Z</time></trkpt><trkpt lat="43.7767367" lon="11.2259733"><ele>42.0</ele><time>2026-04-02T16:43:06.906Z</time></trkpt><trkpt lat="43.7767033" lon="11.2260983"><ele>42.0</ele><time>2026-04-02T16:43:08.905Z</time></trkpt><trkpt lat="43.7766683" lon="11.2262183"><ele>42.0</ele><time>2026-04-02T16:43:10.905Z</time></trkpt><trkpt lat="43.7766267" lon="11.2263233"><ele>42.0</ele><time>2026-04-02T16:43:12.905Z</time></trkpt><trkpt lat="43.7765917" lon="11.2264283"><ele>42.0</ele><time>2026-04-02T16:43:14.905Z</time></trkpt><trkpt lat="43.77656" lon="11.2265517"><ele>42.0</ele><time>2026-04-02T16:43:16.905Z</time></trkpt><trkpt lat="43.77653" lon="11.22666"><ele>42.0</ele><time>2026-04-02T16:43:18.905Z</time></trkpt><trkpt lat="43.7764867" lon="11.22677"><ele>42.0</ele><time>2026-04-02T16:43:20.906Z</time></trkpt><trkpt lat="43.7764517" lon="11.2268767"><ele>42.0</ele><time>2026-04-02T16:43:22.906Z</time></trkpt><trkpt lat="43.776415" lon="11.227005"><ele>42.0</ele><time>2026-04-02T16:43:24.906Z</time></trkpt><trkpt lat="43.776375" lon="11.2271333"><ele>42.0</ele><time>2026-04-02T16:43:26.906Z</time></trkpt><trkpt lat="43.7763367" lon="11.2272483"><ele>42.0</ele><time>2026-04-02T16:43:28.906Z</time></trkpt><trkpt lat="43.7762933" lon="11.2273717"><ele>42.0</ele><time>2026-04-02T16:43:30.906Z</time></trkpt><trkpt lat="43.77626" lon="11.2274883"><ele>42.0</ele><time>2026-04-02T16:43:32.906Z</time></trkpt><trkpt lat="43.776225" lon="11.2276083"><ele>42.0</ele><time>2026-04-02T16:43:34.905Z</time></trkpt><trkpt lat="43.7761917" lon="11.2277267"><ele>42.2</ele><time>2026-04-02T16:43:36.905Z</time></trkpt><trkpt lat="43.77615" lon="11.2278467"><ele>42.400000000000006</ele><time>2026-04-02T16:43:38.905Z</time></trkpt><trkpt lat="43.7761117" lon="11.2279583"><ele>42.599999999999994</ele><time>2026-04-02T16:43:40.906Z</time></trkpt><trkpt lat="43.7760733" lon="11.2280783"><ele>42.8</ele><time>2026-04-02T16:43:42.906Z</time></trkpt><trkpt lat="43.77604" lon="11.2281983"><ele>43.0</ele><time>2026-04-02T16:43:44.905Z</time></trkpt><trkpt lat="43.776005" lon="11.228305"><ele>43.0</ele><time>2026-04-02T16:43:46.905Z</time></trkpt><trkpt lat="43.77597" lon="11.2284067"><ele>43.0</ele><time>2026-04-02T16:43:48.905Z</time></trkpt><trkpt lat="43.7759433" lon="11.2284933"><ele>43.0</ele><time>2026-04-02T16:43:50.906Z</time></trkpt><trkpt lat="43.7759167" lon="11.2285733"><ele>43.0</ele><time>2026-04-02T16:43:52.906Z</time></trkpt><trkpt lat="43.77588" lon="11.2286817"><ele>43.0</ele><time>2026-04-02T16:43:55.905Z</time></trkpt><trkpt lat="43.7758533" lon="11.2287933"><ele>43.0</ele><time>2026-04-02T16:43:58.905Z</time></trkpt><trkpt lat="43.775845" lon="11.2289"><ele>43.00000000000001</ele><time>2026-04-02T16:44:01.905Z</time></trkpt><trkpt lat="43.7759017" lon="11.2289617"><ele>43.0</ele><time>2026-04-02T16:44:05.905Z</time></trkpt><trkpt lat="43.7759467" lon="11.2290283"><ele>43.0</ele><time>2026-04-02T16:44:09.905Z</time></trkpt><trkpt lat="43.7759883" lon="11.2291"><ele>43.0</ele><time>2026-04-02T16:44:12.905Z</time></trkpt><trkpt lat="43.776045" lon="11.2291433"><ele>43.0</ele><time>2026-04-02T16:44:15.905Z</time></trkpt><trkpt lat="43.776115" lon="11.2291867"><ele>43.00000000000001</ele><time>2026-04-02T16:44:18.906Z</time></trkpt><trkpt lat="43.7761783" lon="11.2292367"><ele>43.0</ele><time>2026-04-02T16:44:21.905Z</time></trkpt><trkpt lat="43.776245" lon="11.2292967"><ele>42.833333333333336</ele><time>2026-04-02T16:44:24.906Z</time></trkpt><trkpt lat="43.7763133" lon="11.2293467"><ele>42.66666666666667</ele><time>2026-04-02T16:44:27.906Z</time></trkpt><trkpt lat="43.77639" lon="11.229395"><ele>42.5</ele><time>2026-04-02T16:44:30.905Z</time></trkpt><trkpt lat="43.7764533" lon="11.229455"><ele>42.333333333333336</ele><time>2026-04-02T16:44:33.906Z</time></trkpt><trkpt lat="43.7765283" lon="11.2295117"><ele>42.166666666666664</ele><time>2026-04-02T16:44:36.905Z</time></trkpt><trkpt lat="43.776615" lon="11.229575"><ele>42.0</ele><time>2026-04-02T16:44:39.905Z</time></trkpt><trkpt lat="43.776675" lon="11.22961"><ele>42.0</ele><time>2026-04-02T16:44:41.905Z</time></trkpt><trkpt lat="43.77675" lon="11.2296617"><ele>42.0</ele><time>2026-04-02T16:44:43.906Z</time></trkpt><trkpt lat="43.7768283" lon="11.22976"><ele>42.0</ele><time>2026-04-02T16:44:45.905Z</time></trkpt><trkpt lat="43.776865" lon="11.2298733"><ele>42.0</ele><time>2026-04-02T16:44:47.905Z</time></trkpt><trkpt lat="43.7768733" lon="11.23002"><ele>42.0</ele><time>2026-04-02T16:44:49.905Z</time></trkpt><trkpt lat="43.7768433" lon="11.2301783"><ele>42.2</ele><time>2026-04-02T16:44:51.906Z</time></trkpt><trkpt lat="43.7768167" lon="11.2302583"><ele>42.400000000000006</ele><time>2026-04-02T16:44:52.905Z</time></trkpt><trkpt lat="43.7767817" lon="11.2304233"><ele>42.599999999999994</ele><time>2026-04-02T16:44:54.905Z</time></trkpt><trkpt lat="43.7767533" lon="11.2305867"><ele>42.8</ele><time>2026-04-02T16:44:56.905Z</time></trkpt><trkpt lat="43.77673" lon="11.2307033"><ele>43.0</ele><time>2026-04-02T16:44:58.906Z</time></trkpt><trkpt lat="43.7767183" lon="11.23082"><ele>43.16666666666667</ele><time>2026-04-02T16:45:00.905Z</time></trkpt><trkpt lat="43.7766967" lon="11.2309317"><ele>43.333333333333336</ele><time>2026-04-02T16:45:02.906Z</time></trkpt><trkpt lat="43.77666" lon="11.2310417"><ele>43.5</ele><time>2026-04-02T16:45:04.905Z</time></trkpt><trkpt lat="43.7766433" lon="11.231135"><ele>43.666666666666664</ele><time>2026-04-02T16:45:06.906Z</time></trkpt><trkpt lat="43.7766217" lon="11.2312333"><ele>43.83333333333333</ele><time>2026-04-02T16:45:08.905Z</time></trkpt><trkpt lat="43.7765867" lon="11.2313367"><ele>44.0</ele><time>2026-04-02T16:45:10.906Z</time></trkpt><trkpt lat="43.7765467" lon="11.23145"><ele>44.666666666666664</ele><time>2026-04-02T16:45:12.906Z</time></trkpt><trkpt lat="43.776505" lon="11.23156"><ele>45.33333333333333</ele><time>2026-04-02T16:45:14.905Z</time></trkpt><trkpt lat="43.7764817" lon="11.2316667"><ele>46.0</ele><time>2026-04-02T16:45:16.905Z</time></trkpt><trkpt lat="43.7764667" lon="11.2317717"><ele>46.666666666666664</ele><time>2026-04-02T16:45:18.905Z</time></trkpt><trkpt lat="43.77645" lon="11.2318783"><ele>47.333333333333336</ele><time>2026-04-02T16:45:20.905Z</time></trkpt><trkpt lat="43.77642" lon="11.2319983"><ele>48.0</ele><time>2026-04-02T16:45:22.905Z</time></trkpt><trkpt lat="43.7763733" lon="11.23214"><ele>48.0</ele><time>2026-04-02T16:45:24.905Z</time></trkpt><trkpt lat="43.7763317" lon="11.232255"><ele>48.0</ele><time>2026-04-02T16:45:26.905Z</time></trkpt><trkpt lat="43.7763" lon="11.232375"><ele>48.0</ele><time>2026-04-02T16:45:28.905Z</time></trkpt><trkpt lat="43.7762667" lon="11.2324767"><ele>48.0</ele><time>2026-04-02T16:45:30.905Z</time></trkpt><trkpt lat="43.7762333" lon="11.2325933"><ele>48.0</ele><time>2026-04-02T16:45:32.905Z</time></trkpt><trkpt lat="43.7762067" lon="11.2326933"><ele>48.0</ele><time>2026-04-02T16:45:34.906Z</time></trkpt><trkpt lat="43.7761667" lon="11.232815"><ele>48.4</ele><time>2026-04-02T16:45:36.905Z</time></trkpt><trkpt lat="43.7761283" lon="11.2329433"><ele>48.8</ele><time>2026-04-02T16:45:38.905Z</time></trkpt><trkpt lat="43.77608" lon="11.2330567"><ele>49.2</ele><time>2026-04-02T16:45:40.905Z</time></trkpt><trkpt lat="43.7760433" lon="11.233175"><ele>49.6</ele><time>2026-04-02T16:45:42.905Z</time></trkpt><trkpt lat="43.77601" lon="11.233285"><ele>50.0</ele><time>2026-04-02T16:45:44.905Z</time></trkpt><trkpt lat="43.7759817" lon="11.2333867"><ele>49.00000000000001</ele><time>2026-04-02T16:45:46.905Z</time></trkpt><trkpt lat="43.77595" lon="11.2334867"><ele>48.0</ele><time>2026-04-02T16:45:48.905Z</time></trkpt><trkpt lat="43.7759217" lon="11.233605"><ele>47.0</ele><time>2026-04-02T16:45:50.906Z</time></trkpt><trkpt lat="43.7758983" lon="11.2337217"><ele>46.0</ele><time>2026-04-02T16:45:52.905Z</time></trkpt><trkpt lat="43.7758817" lon="11.2338183"><ele>45.0</ele><time>2026-04-02T16:45:54.905Z</time></trkpt><trkpt lat="43.7758667" lon="11.2339333"><ele>44.0</ele><time>2026-04-02T16:45:56.905Z</time></trkpt><trkpt lat="43.7758483" lon="11.23405"><ele>44.0</ele><time>2026-04-02T16:45:58.905Z</time></trkpt><trkpt lat="43.77584" lon="11.2341667"><ele>44.0</ele><time>2026-04-02T16:46:00.905Z</time></trkpt><trkpt lat="43.77584" lon="11.2342817"><ele>44.0</ele><time>2026-04-02T16:46:02.906Z</time></trkpt><trkpt lat="43.77585" lon="11.234385"><ele>44.0</ele><time>2026-04-02T16:46:04.905Z</time></trkpt><trkpt lat="43.775875" lon="11.23447"><ele>44.0</ele><time>2026-04-02T16:46:06.905Z</time></trkpt><trkpt lat="43.77591" lon="11.2345733"><ele>44.0</ele><time>2026-04-02T16:46:08.906Z</time></trkpt><trkpt lat="43.7759533" lon="11.23467"><ele>44.0</ele><time>2026-04-02T16:46:10.905Z</time></trkpt><trkpt lat="43.775985" lon="11.2347617"><ele>44.0</ele><time>2026-04-02T16:46:12.905Z</time></trkpt><trkpt lat="43.776015" lon="11.2348617"><ele>44.0</ele><time>2026-04-02T16:46:14.905Z</time></trkpt><trkpt lat="43.7760383" lon="11.234955"><ele>44.0</ele><time>2026-04-02T16:46:16.905Z</time></trkpt><trkpt lat="43.77605" lon="11.2350633"><ele>44.0</ele><time>2026-04-02T16:46:18.905Z</time></trkpt><trkpt lat="43.7760417" lon="11.23518"><ele>44.0</ele><time>2026-04-02T16:46:20.905Z</time></trkpt><trkpt lat="43.7760383" lon="11.2352983"><ele>44.0</ele><time>2026-04-02T16:46:22.906Z</time></trkpt><trkpt lat="43.7760317" lon="11.235425"><ele>44.0</ele><time>2026-04-02T16:46:24.905Z</time></trkpt><trkpt lat="43.776015" lon="11.23553"><ele>44.0</ele><time>2026-04-02T16:46:26.905Z</time></trkpt><trkpt lat="43.7759833" lon="11.2356467"><ele>44.0</ele><time>2026-04-02T16:46:28.905Z</time></trkpt><trkpt lat="43.775965" lon="11.2357533"><ele>44.0</ele><time>2026-04-02T16:46:30.905Z</time></trkpt><trkpt lat="43.7759367" lon="11.2358583"><ele>44.0</ele><time>2026-04-02T16:46:32.905Z</time></trkpt><trkpt lat="43.7759083" lon="11.2359833"><ele>44.285714285714285</ele><time>2026-04-02T16:46:35.905Z</time></trkpt><trkpt lat="43.7758883" lon="11.2360667"><ele>44.57142857142857</ele><time>2026-04-02T16:46:37.905Z</time></trkpt><trkpt lat="43.7758633" lon="11.2361567"><ele>44.85714285714286</ele><time>2026-04-02T16:46:39.905Z</time></trkpt><trkpt lat="43.7758533" lon="11.23625"><ele>45.14285714285714</ele><time>2026-04-02T16:46:42.905Z</time></trkpt><trkpt lat="43.77584" lon="11.2363433"><ele>45.42857142857142</ele><time>2026-04-02T16:46:44.905Z</time></trkpt><trkpt lat="43.7758233" lon="11.2364517"><ele>45.714285714285715</ele><time>2026-04-02T16:46:46.906Z</time></trkpt><trkpt lat="43.775795" lon="11.2365733"><ele>46.0</ele><time>2026-04-02T16:46:48.905Z</time></trkpt><trkpt lat="43.7757517" lon="11.2366833"><ele>46.16666666666667</ele><time>2026-04-02T16:46:50.905Z</time></trkpt><trkpt lat="43.77571" lon="11.2367967"><ele>46.333333333333336</ele><time>2026-04-02T16:46:52.905Z</time></trkpt><trkpt lat="43.7756517" lon="11.2368667"><ele>46.5</ele><time>2026-04-02T16:46:54.905Z</time></trkpt><trkpt lat="43.7755817" lon="11.2368667"><ele>46.666666666666664</ele><time>2026-04-02T16:46:56.905Z</time></trkpt><trkpt lat="43.77549" lon="11.23679"><ele>46.83333333333333</ele><time>2026-04-02T16:46:59.905Z</time></trkpt><trkpt lat="43.7754217" lon="11.236715"><ele>47.0</ele><time>2026-04-02T16:47:01.906Z</time></trkpt><trkpt lat="43.7753683" lon="11.23665"><ele>47.0</ele><time>2026-04-02T16:47:03.906Z</time></trkpt><trkpt lat="43.7753133" lon="11.2365867"><ele>47.0</ele><time>2026-04-02T16:47:05.905Z</time></trkpt><trkpt lat="43.7752667" lon="11.236525"><ele>47.0</ele><time>2026-04-02T16:47:07.905Z</time></trkpt><trkpt lat="43.7752167" lon="11.2364717"><ele>47.0</ele><time>2026-04-02T16:47:09.905Z</time></trkpt><trkpt lat="43.7751483" lon="11.23644"><ele>47.0</ele><time>2026-04-02T16:47:11.905Z</time></trkpt><trkpt lat="43.77508" lon="11.236445"><ele>47.0</ele><time>2026-04-02T16:47:13.905Z</time></trkpt><trkpt lat="43.77503" lon="11.2365017"><ele>47.0</ele><time>2026-04-02T16:47:15.905Z</time></trkpt><trkpt lat="43.7749983" lon="11.2365933"><ele>47.14285714285714</ele><time>2026-04-02T16:47:17.905Z</time></trkpt><trkpt lat="43.7749733" lon="11.2366783"><ele>47.285714285714285</ele><time>2026-04-02T16:47:19.905Z</time></trkpt><trkpt lat="43.774955" lon="11.2367983"><ele>47.42857142857143</ele><time>2026-04-02T16:47:22.905Z</time></trkpt><trkpt lat="43.774925" lon="11.2368883"><ele>47.57142857142857</ele><time>2026-04-02T16:47:24.905Z</time></trkpt><trkpt lat="43.7748983" lon="11.2369933"><ele>47.714285714285715</ele><time>2026-04-02T16:47:26.906Z</time></trkpt><trkpt lat="43.7748767" lon="11.2370783"><ele>47.857142857142854</ele><time>2026-04-02T16:47:28.905Z</time></trkpt><trkpt lat="43.77486" lon="11.2371733"><ele>48.0</ele><time>2026-04-02T16:47:30.905Z</time></trkpt><trkpt lat="43.7748317" lon="11.2372717"><ele>48.5</ele><time>2026-04-02T16:47:32.906Z</time></trkpt><trkpt lat="43.7748083" lon="11.2373733"><ele>49.0</ele><time>2026-04-02T16:47:34.906Z</time></trkpt><trkpt lat="43.7747717" lon="11.2374917"><ele>49.5</ele><time>2026-04-02T16:47:36.905Z</time></trkpt><trkpt lat="43.7747317" lon="11.237605"><ele>50.0</ele><time>2026-04-02T16:47:38.905Z</time></trkpt><trkpt lat="43.7746983" lon="11.2377233"><ele>50.5</ele><time>2026-04-02T16:47:40.905Z</time></trkpt><trkpt lat="43.7746733" lon="11.2378433"><ele>51.0</ele><time>2026-04-02T16:47:42.906Z</time></trkpt><trkpt lat="43.7746333" lon="11.2379567"><ele>51.0</ele><time>2026-04-02T16:47:44.905Z</time></trkpt><trkpt lat="43.7746017" lon="11.2380633"><ele>51.0</ele><time>2026-04-02T16:47:46.906Z</time></trkpt><trkpt lat="43.7745617" lon="11.23818"><ele>51.0</ele><time>2026-04-02T16:47:48.905Z</time></trkpt><trkpt lat="43.7745267" lon="11.2382783"><ele>51.0</ele><time>2026-04-02T16:47:50.905Z</time></trkpt><trkpt lat="43.77449" lon="11.2383833"><ele>51.0</ele><time>2026-04-02T16:47:52.905Z</time></trkpt><trkpt lat="43.7744533" lon="11.2385217"><ele>51.0</ele><time>2026-04-02T16:47:54.905Z</time></trkpt><trkpt lat="43.7744417" lon="11.2386117"><ele>51.166666666666664</ele><time>2026-04-02T16:47:56.905Z</time></trkpt><trkpt lat="43.77441" lon="11.2387233"><ele>51.33333333333333</ele><time>2026-04-02T16:47:58.905Z</time></trkpt><trkpt lat="43.774365" lon="11.2388333"><ele>51.5</ele><time>2026-04-02T16:48:00.905Z</time></trkpt><trkpt lat="43.7743167" lon="11.238945"><ele>51.666666666666664</ele><time>2026-04-02T16:48:02.905Z</time></trkpt><trkpt lat="43.7742817" lon="11.2390433"><ele>51.83333333333333</ele><time>2026-04-02T16:48:04.906Z</time></trkpt><trkpt lat="43.7742367" lon="11.239145"><ele>52.0</ele><time>2026-04-02T16:48:06.906Z</time></trkpt><trkpt lat="43.7742083" lon="11.2392367"><ele>51.666666666666664</ele><time>2026-04-02T16:48:08.905Z</time></trkpt><trkpt lat="43.774165" lon="11.2393267"><ele>51.33333333333333</ele><time>2026-04-02T16:48:10.905Z</time></trkpt><trkpt lat="43.7741067" lon="11.2393967"><ele>51.0</ele><time>2026-04-02T16:48:12.906Z</time></trkpt><trkpt lat="43.774075" lon="11.23948"><ele>50.66666666666667</ele><time>2026-04-02T16:48:14.905Z</time></trkpt><trkpt lat="43.7740483" lon="11.2396033"><ele>50.333333333333336</ele><time>2026-04-02T16:48:17.906Z</time></trkpt><trkpt lat="43.7740217" lon="11.23969"><ele>50.0</ele><time>2026-04-02T16:48:19.905Z</time></trkpt><trkpt lat="43.7739817" lon="11.2398"><ele>50.28571428571429</ele><time>2026-04-02T16:48:22.905Z</time></trkpt><trkpt lat="43.7739533" lon="11.23991"><ele>50.57142857142857</ele><time>2026-04-02T16:48:25.905Z</time></trkpt><trkpt lat="43.7739183" lon="11.2399933"><ele>50.85714285714286</ele><time>2026-04-02T16:48:27.905Z</time></trkpt><trkpt lat="43.7738833" lon="11.2400717"><ele>51.142857142857146</ele><time>2026-04-02T16:48:29.905Z</time></trkpt><trkpt lat="43.7738583" lon="11.2401733"><ele>51.42857142857143</ele><time>2026-04-02T16:48:31.906Z</time></trkpt><trkpt lat="43.7738333" lon="11.2402817"><ele>51.714285714285715</ele><time>2026-04-02T16:48:33.906Z</time></trkpt><trkpt lat="43.7738067" lon="11.2403617"><ele>52.0</ele><time>2026-04-02T16:48:35.905Z</time></trkpt><trkpt lat="43.77377" lon="11.24048"><ele>51.99999999999999</ele><time>2026-04-02T16:48:37.906Z</time></trkpt><trkpt lat="43.7737433" lon="11.2405867"><ele>52.0</ele><time>2026-04-02T16:48:39.905Z</time></trkpt><trkpt lat="43.7737083" lon="11.2406833"><ele>52.0</ele><time>2026-04-02T16:48:41.905Z</time></trkpt><trkpt lat="43.7736417" lon="11.2407583"><ele>52.0</ele><time>2026-04-02T16:48:43.906Z</time></trkpt><trkpt lat="43.773585" lon="11.24087"><ele>51.99999999999999</ele><time>2026-04-02T16:48:45.905Z</time></trkpt><trkpt lat="43.7735333" lon="11.240975"><ele>52.0</ele><time>2026-04-02T16:48:47.905Z</time></trkpt><trkpt lat="43.773495" lon="11.241075"><ele>50.83333333333333</ele><time>2026-04-02T16:48:49.906Z</time></trkpt><trkpt lat="43.773465" lon="11.241165"><ele>49.666666666666664</ele><time>2026-04-02T16:48:51.905Z</time></trkpt><trkpt lat="43.77344" lon="11.2412483"><ele>48.5</ele><time>2026-04-02T16:48:53.905Z</time></trkpt><trkpt lat="43.77341" lon="11.241335"><ele>47.33333333333333</ele><time>2026-04-02T16:48:55.905Z</time></trkpt><trkpt lat="43.7733783" lon="11.2414233"><ele>46.166666666666664</ele><time>2026-04-02T16:48:57.906Z</time></trkpt><trkpt lat="43.7733433" lon="11.24153"><ele>45.0</ele><time>2026-04-02T16:48:59.905Z</time></trkpt><trkpt lat="43.7733133" lon="11.2416633"><ele>44.833333333333336</ele><time>2026-04-02T16:49:01.905Z</time></trkpt><trkpt lat="43.7732833" lon="11.241765"><ele>44.666666666666664</ele><time>2026-04-02T16:49:03.905Z</time></trkpt><trkpt lat="43.773255" lon="11.2418567"><ele>44.5</ele><time>2026-04-02T16:49:05.905Z</time></trkpt><trkpt lat="43.7732233" lon="11.24197"><ele>44.33333333333333</ele><time>2026-04-02T16:49:08.905Z</time></trkpt><trkpt lat="43.7731933" lon="11.2420817"><ele>44.166666666666664</ele><time>2026-04-02T16:49:10.905Z</time></trkpt><trkpt lat="43.7731667" lon="11.2421867"><ele>44.0</ele><time>2026-04-02T16:49:12.905Z</time></trkpt><trkpt lat="43.773145" lon="11.2422717"><ele>45.166666666666664</ele><time>2026-04-02T16:49:14.905Z</time></trkpt><trkpt lat="43.7731133" lon="11.2423667"><ele>46.33333333333333</ele><time>2026-04-02T16:49:16.905Z</time></trkpt><trkpt lat="43.7730633" lon="11.2424667"><ele>47.5</ele><time>2026-04-02T16:49:19.905Z</time></trkpt><trkpt lat="43.7730367" lon="11.24255"><ele>48.666666666666664</ele><time>2026-04-02T16:49:21.905Z</time></trkpt><trkpt lat="43.772995" lon="11.2426533"><ele>49.833333333333336</ele><time>2026-04-02T16:49:23.905Z</time></trkpt><trkpt lat="43.7729617" lon="11.2427467"><ele>51.0</ele><time>2026-04-02T16:49:25.905Z</time></trkpt><trkpt lat="43.7729317" lon="11.24284"><ele>51.0</ele><time>2026-04-02T16:49:27.906Z</time></trkpt><trkpt lat="43.7729167" lon="11.2429667"><ele>51.0</ele><time>2026-04-02T16:49:30.905Z</time></trkpt><trkpt lat="43.7728933" lon="11.24305"><ele>51.0</ele><time>2026-04-02T16:49:32.906Z</time></trkpt><trkpt lat="43.77286" lon="11.2431283"><ele>51.0</ele><time>2026-04-02T16:49:34.905Z</time></trkpt><trkpt lat="43.772835" lon="11.2432333"><ele>51.0</ele><time>2026-04-02T16:49:36.905Z</time></trkpt><trkpt lat="43.7728067" lon="11.2433433"><ele>51.0</ele><time>2026-04-02T16:49:38.905Z</time></trkpt><trkpt lat="43.7727683" lon="11.243415"><ele>51.5</ele><time>2026-04-02T16:49:40.906Z</time></trkpt><trkpt lat="43.7727067" lon="11.24351"><ele>52.0</ele><time>2026-04-02T16:49:42.905Z</time></trkpt><trkpt lat="43.77266" lon="11.2436017"><ele>52.5</ele><time>2026-04-02T16:49:44.906Z</time></trkpt><trkpt lat="43.7726267" lon="11.243695"><ele>53.0</ele><time>2026-04-02T16:49:46.905Z</time></trkpt><trkpt lat="43.7726" lon="11.2437933"><ele>53.5</ele><time>2026-04-02T16:49:48.905Z</time></trkpt><trkpt lat="43.772575" lon="11.243875"><ele>54.0</ele><time>2026-04-02T16:49:50.905Z</time></trkpt><trkpt lat="43.772545" lon="11.2439733"><ele>54.166666666666664</ele><time>2026-04-02T16:49:52.905Z</time></trkpt><trkpt lat="43.7725067" lon="11.2440767"><ele>54.33333333333333</ele><time>2026-04-02T16:49:54.906Z</time></trkpt><trkpt lat="43.772465" lon="11.2441733"><ele>54.5</ele><time>2026-04-02T16:49:56.905Z</time></trkpt><trkpt lat="43.7724217" lon="11.2442733"><ele>54.666666666666664</ele><time>2026-04-02T16:49:58.906Z</time></trkpt><trkpt lat="43.7723783" lon="11.2443867"><ele>54.83333333333333</ele><time>2026-04-02T16:50:00.906Z</time></trkpt><trkpt lat="43.7723267" lon="11.24449"><ele>55.0</ele><time>2026-04-02T16:50:02.906Z</time></trkpt><trkpt lat="43.77228" lon="11.244595"><ele>54.99999999999999</ele><time>2026-04-02T16:50:04.905Z</time></trkpt><trkpt lat="43.7722333" lon="11.2446983"><ele>55.0</ele><time>2026-04-02T16:50:06.906Z</time></trkpt><trkpt lat="43.77218" lon="11.2447983"><ele>55.0</ele><time>2026-04-02T16:50:08.905Z</time></trkpt><trkpt lat="43.772135" lon="11.2448833"><ele>55.0</ele><time>2026-04-02T16:50:10.905Z</time></trkpt><trkpt lat="43.7720717" lon="11.2449717"><ele>54.99999999999999</ele><time>2026-04-02T16:50:12.905Z</time></trkpt><trkpt lat="43.7720217" lon="11.245065"><ele>55.0</ele><time>2026-04-02T16:50:14.905Z</time></trkpt><trkpt lat="43.7719817" lon="11.245145"><ele>54.99999999999999</ele><time>2026-04-02T16:50:16.906Z</time></trkpt><trkpt lat="43.7719383" lon="11.24522"><ele>55.0</ele><time>2026-04-02T16:50:18.905Z</time></trkpt><trkpt lat="43.7719033" lon="11.2453"><ele>55.0</ele><time>2026-04-02T16:50:20.905Z</time></trkpt><trkpt lat="43.771865" lon="11.245375"><ele>55.0</ele><time>2026-04-02T16:50:22.905Z</time></trkpt><trkpt lat="43.7718333" lon="11.2454633"><ele>55.0</ele><time>2026-04-02T16:50:24.906Z</time></trkpt><trkpt lat="43.77181" lon="11.2455617"><ele>54.99999999999999</ele><time>2026-04-02T16:50:26.906Z</time></trkpt><trkpt lat="43.77179" lon="11.245675"><ele>55.0</ele><time>2026-04-02T16:50:28.905Z</time></trkpt><trkpt lat="43.7717517" lon="11.2457717"><ele>56.49999999999999</ele><time>2026-04-02T16:50:30.905Z</time></trkpt><trkpt lat="43.7717117" lon="11.24587"><ele>58.0</ele><time>2026-04-02T16:50:32.905Z</time></trkpt><trkpt lat="43.7716767" lon="11.2459583"><ele>59.5</ele><time>2026-04-02T16:50:34.905Z</time></trkpt><trkpt lat="43.7716433" lon="11.2460583"><ele>61.0</ele><time>2026-04-02T16:50:36.905Z</time></trkpt><trkpt lat="43.77161" lon="11.2461533"><ele>62.49999999999999</ele><time>2026-04-02T16:50:38.905Z</time></trkpt><trkpt lat="43.7715717" lon="11.2462517"><ele>64.0</ele><time>2026-04-02T16:50:40.905Z</time></trkpt><trkpt lat="43.771535" lon="11.24635"><ele>63.99999999999999</ele><time>2026-04-02T16:50:42.905Z</time></trkpt><trkpt lat="43.771495" lon="11.246445"><ele>64.0</ele><time>2026-04-02T16:50:44.905Z</time></trkpt><trkpt lat="43.77146" lon="11.2465383"><ele>64.0</ele><time>2026-04-02T16:50:46.905Z</time></trkpt><trkpt lat="43.7714267" lon="11.2466233"><ele>64.0</ele><time>2026-04-02T16:50:48.905Z</time></trkpt><trkpt lat="43.7713817" lon="11.2467367"><ele>63.99999999999999</ele><time>2026-04-02T16:50:51.906Z</time></trkpt><trkpt lat="43.7713517" lon="11.2468217"><ele>64.0</ele><time>2026-04-02T16:50:53.905Z</time></trkpt><trkpt lat="43.7713067" lon="11.24692"><ele>62.83333333333333</ele><time>2026-04-02T16:50:55.905Z</time></trkpt><trkpt lat="43.7712683" lon="11.2470083"><ele>61.666666666666664</ele><time>2026-04-02T16:50:57.905Z</time></trkpt><trkpt lat="43.771225" lon="11.247095"><ele>60.5</ele><time>2026-04-02T16:50:59.905Z</time></trkpt><trkpt lat="43.7711817" lon="11.2471967"><ele>59.33333333333333</ele><time>2026-04-02T16:51:02.905Z</time></trkpt><trkpt lat="43.7711333" lon="11.2472983"><ele>58.166666666666664</ele><time>2026-04-02T16:51:04.905Z</time></trkpt><trkpt lat="43.7710883" lon="11.24739"><ele>57.0</ele><time>2026-04-02T16:51:06.905Z</time></trkpt><trkpt lat="43.7710333" lon="11.2474883"><ele>56.333333333333336</ele><time>2026-04-02T16:51:09.906Z</time></trkpt><trkpt lat="43.7709817" lon="11.2475483"><ele>55.66666666666667</ele><time>2026-04-02T16:51:11.906Z</time></trkpt><trkpt lat="43.7709267" lon="11.2476167"><ele>55.0</ele><time>2026-04-02T16:51:15.905Z</time></trkpt><trkpt lat="43.7708933" lon="11.2477167"><ele>54.333333333333336</ele><time>2026-04-02T16:51:21.905Z</time></trkpt><trkpt lat="43.7709167" lon="11.2478217"><ele>53.66666666666667</ele><time>2026-04-02T16:51:25.905Z</time></trkpt><trkpt lat="43.77098" lon="11.24788"><ele>53.0</ele><time>2026-04-02T16:51:28.905Z</time></trkpt><trkpt lat="43.7710267" lon="11.247965"><ele>53.00000000000001</ele><time>2026-04-02T16:51:30.905Z</time></trkpt><trkpt lat="43.7710533" lon="11.24808"><ele>53.0</ele><time>2026-04-02T16:51:33.905Z</time></trkpt><trkpt lat="43.77102" lon="11.248185"><ele>53.0</ele><time>2026-04-02T16:51:35.905Z</time></trkpt><trkpt lat="43.7709983" lon="11.2482733"><ele>53.0</ele><time>2026-04-02T16:51:38.905Z</time></trkpt><trkpt lat="43.7709767" lon="11.2483683"><ele>53.00000000000001</ele><time>2026-04-02T16:51:42.905Z</time></trkpt><trkpt lat="43.7709967" lon="11.248495"><ele>53.0</ele><time>2026-04-02T16:51:45.905Z</time></trkpt><trkpt lat="43.7710233" lon="11.2485883"><ele>53.66666666666667</ele><time>2026-04-02T16:51:47.905Z</time></trkpt><trkpt lat="43.771055" lon="11.2486917"><ele>54.333333333333336</ele><time>2026-04-02T16:51:49.906Z</time></trkpt><trkpt lat="43.7710683" lon="11.248785"><ele>55.0</ele><time>2026-04-02T16:51:51.905Z</time></trkpt><trkpt lat="43.771075" lon="11.2488767"><ele>55.66666666666667</ele><time>2026-04-02T16:51:53.905Z</time></trkpt><trkpt lat="43.7710817" lon="11.24898"><ele>56.333333333333336</ele><time>2026-04-02T16:51:55.905Z</time></trkpt><trkpt lat="43.771105" lon="11.2490833"><ele>57.0</ele><time>2026-04-02T16:51:57.905Z</time></trkpt><trkpt lat="43.77112" lon="11.2492167"><ele>57.0</ele><time>2026-04-02T16:52:00.905Z</time></trkpt><trkpt lat="43.77113" lon="11.24932"><ele>57.0</ele><time>2026-04-02T16:52:02.905Z</time></trkpt><trkpt lat="43.7711683" lon="11.249455"><ele>57.0</ele><time>2026-04-02T16:52:04.906Z</time></trkpt><trkpt lat="43.7712" lon="11.2496033"><ele>57.0</ele><time>2026-04-02T16:52:06.906Z</time></trkpt><trkpt lat="43.7712117" lon="11.2497483"><ele>57.0</ele><time>2026-04-02T16:52:08.906Z</time></trkpt><trkpt lat="43.7712417" lon="11.2498367"><ele>57.0</ele><time>2026-04-02T16:52:10.906Z</time></trkpt><trkpt lat="43.7712783" lon="11.2499617"><ele>57.0</ele><time>2026-04-02T16:52:13.906Z</time></trkpt><trkpt lat="43.7713067" lon="11.2500683"><ele>57.0</ele><time>2026-04-02T16:52:16.905Z</time></trkpt><trkpt lat="43.7713233" lon="11.25018"><ele>57.0</ele><time>2026-04-02T16:52:19.906Z</time></trkpt><trkpt lat="43.7713267" lon="11.2502783"><ele>57.0</ele><time>2026-04-02T16:52:21.906Z</time></trkpt><trkpt lat="43.7713367" lon="11.2504083"><ele>57.0</ele><time>2026-04-02T16:52:24.905Z</time></trkpt><trkpt lat="43.7713233" lon="11.2505267"><ele>58.0</ele><time>2026-04-02T16:52:26.906Z</time></trkpt><trkpt lat="43.77132" lon="11.250635"><ele>59.0</ele><time>2026-04-02T16:52:29.905Z</time></trkpt><trkpt lat="43.77132" lon="11.250735"><ele>60.0</ele><time>2026-04-02T16:52:32.905Z</time></trkpt><trkpt lat="43.7713517" lon="11.2508183"><ele>61.0</ele><time>2026-04-02T16:52:34.905Z</time></trkpt><trkpt lat="43.7713433" lon="11.25096"><ele>62.0</ele><time>2026-04-02T16:52:36.905Z</time></trkpt><trkpt lat="43.7713983" lon="11.2511033"><ele>63.0</ele><time>2026-04-02T16:52:39.907Z</time></trkpt><trkpt lat="43.7714433" lon="11.251185"><ele>63.0</ele><time>2026-04-02T16:52:40.906Z</time></trkpt><trkpt lat="43.7714867" lon="11.2513083"><ele>63.0</ele><time>2026-04-02T16:52:42.907Z</time></trkpt><trkpt lat="43.7715" lon="11.2514117"><ele>63.0</ele><time>2026-04-02T16:52:44.906Z</time></trkpt><trkpt lat="43.7714817" lon="11.2515167"><ele>63.0</ele><time>2026-04-02T16:52:46.906Z</time></trkpt><trkpt lat="43.7714833" lon="11.251645"><ele>63.0</ele><time>2026-04-02T16:52:49.907Z</time></trkpt><trkpt lat="43.7715017" lon="11.251765"><ele>63.0</ele><time>2026-04-02T16:52:52.906Z</time></trkpt><trkpt lat="43.77154" lon="11.251895"><ele>63.166666666666664</ele><time>2026-04-02T16:52:55.906Z</time></trkpt><trkpt lat="43.7715517" lon="11.2520017"><ele>63.33333333333333</ele><time>2026-04-02T16:52:57.906Z</time></trkpt><trkpt lat="43.77152" lon="11.2520867"><ele>63.5</ele><time>2026-04-02T16:52:59.907Z</time></trkpt><trkpt lat="43.7715267" lon="11.2522"><ele>63.666666666666664</ele><time>2026-04-02T16:53:01.906Z</time></trkpt><trkpt lat="43.771535" lon="11.2523233"><ele>63.83333333333333</ele><time>2026-04-02T16:53:03.906Z</time></trkpt><trkpt lat="43.77153" lon="11.2524183"><ele>64.0</ele><time>2026-04-02T16:53:05.906Z</time></trkpt><trkpt lat="43.7715367" lon="11.252505"><ele>63.99999999999999</ele><time>2026-04-02T16:53:07.906Z</time></trkpt><trkpt lat="43.7715267" lon="11.252615"><ele>64.0</ele><time>2026-04-02T16:53:09.906Z</time></trkpt><trkpt lat="43.7715133" lon="11.2527217"><ele>64.0</ele><time>2026-04-02T16:53:12.906Z</time></trkpt><trkpt lat="43.771565" lon="11.2527767"><ele>64.0</ele><time>2026-04-02T16:53:17.907Z</time></trkpt><trkpt lat="43.7716517" lon="11.252755"><ele>63.99999999999999</ele><time>2026-04-02T16:53:22.906Z</time></trkpt><trkpt lat="43.77173" lon="11.2527583"><ele>64.0</ele><time>2026-04-02T16:53:24.906Z</time></trkpt><trkpt lat="43.7718033" lon="11.2527633"><ele>63.83333333333333</ele><time>2026-04-02T16:53:26.906Z</time></trkpt><trkpt lat="43.77187" lon="11.2527717"><ele>63.666666666666664</ele><time>2026-04-02T16:53:28.906Z</time></trkpt><trkpt lat="43.7719433" lon="11.2527733"><ele>63.5</ele><time>2026-04-02T16:53:31.906Z</time></trkpt><trkpt lat="43.7720167" lon="11.2528017"><ele>63.33333333333333</ele><time>2026-04-02T16:53:34.906Z</time></trkpt><trkpt lat="43.7721" lon="11.2528"><ele>63.166666666666664</ele><time>2026-04-02T16:53:38.907Z</time></trkpt><trkpt lat="43.7721833" lon="11.2528017"><ele>63.0</ele><time>2026-04-02T16:53:41.906Z</time></trkpt><trkpt lat="43.772275" lon="11.2528"><ele>63.0</ele><time>2026-04-02T16:53:43.906Z</time></trkpt><trkpt lat="43.77235" lon="11.252805"><ele>63.0</ele><time>2026-04-02T16:53:45.906Z</time></trkpt><trkpt lat="43.772415" lon="11.252805"><ele>63.0</ele><time>2026-04-02T16:53:47.906Z</time></trkpt><trkpt lat="43.7725117" lon="11.252775"><ele>63.0</ele><time>2026-04-02T16:53:50.906Z</time></trkpt><trkpt lat="43.7725883" lon="11.2527783"><ele>63.0</ele><time>2026-04-02T16:53:52.907Z</time></trkpt><trkpt lat="43.77264" lon="11.25288"><ele>63.0</ele><time>2026-04-02T16:53:55.906Z</time></trkpt><trkpt lat="43.772675" lon="11.2529917"><ele>63.0</ele><time>2026-04-02T16:53:58.907Z</time></trkpt><trkpt lat="43.7726883" lon="11.2530783"><ele>63.0</ele><time>2026-04-02T16:54:00.907Z</time></trkpt><trkpt lat="43.77271" lon="11.2532117"><ele>63.0</ele><time>2026-04-02T16:54:03.906Z</time></trkpt><trkpt lat="43.772725" lon="11.2533183"><ele>63.0</ele><time>2026-04-02T16:54:06.906Z</time></trkpt><trkpt lat="43.7727317" lon="11.2534067"><ele>63.0</ele><time>2026-04-02T16:54:08.907Z</time></trkpt><trkpt lat="43.7727417" lon="11.2535017"><ele>63.0</ele><time>2026-04-02T16:54:10.907Z</time></trkpt><trkpt lat="43.7727367" lon="11.2536233"><ele>62.666666666666664</ele><time>2026-04-02T16:54:12.906Z</time></trkpt><trkpt lat="43.7727283" lon="11.2537233"><ele>62.33333333333333</ele><time>2026-04-02T16:54:14.906Z</time></trkpt><trkpt lat="43.7727117" lon="11.2538367"><ele>62.0</ele><time>2026-04-02T16:54:16.906Z</time></trkpt><trkpt lat="43.772725" lon="11.2539667"><ele>61.666666666666664</ele><time>2026-04-02T16:54:19.906Z</time></trkpt><trkpt lat="43.7727533" lon="11.2540817"><ele>61.33333333333333</ele><time>2026-04-02T16:54:22.906Z</time></trkpt><trkpt lat="43.7727883" lon="11.25422"><ele>61.0</ele><time>2026-04-02T16:54:25.906Z</time></trkpt><trkpt lat="43.77282" lon="11.25434"><ele>60.33333333333333</ele><time>2026-04-02T16:54:28.906Z</time></trkpt><trkpt lat="43.7728567" lon="11.25444"><ele>59.666666666666664</ele><time>2026-04-02T16:54:31.907Z</time></trkpt><trkpt lat="43.772865" lon="11.25453"><ele>59.0</ele><time>2026-04-02T16:54:34.906Z</time></trkpt><trkpt lat="43.772875" lon="11.2546417"><ele>58.33333333333333</ele><time>2026-04-02T16:54:37.906Z</time></trkpt><trkpt lat="43.7728617" lon="11.254755"><ele>57.666666666666664</ele><time>2026-04-02T16:54:40.907Z</time></trkpt><trkpt lat="43.7728533" lon="11.2548783"><ele>57.0</ele><time>2026-04-02T16:54:43.906Z</time></trkpt><trkpt lat="43.7729083" lon="11.2549933"><ele>56.285714285714285</ele><time>2026-04-02T16:54:45.906Z</time></trkpt><trkpt lat="43.77296" lon="11.2550633"><ele>55.57142857142857</ele><time>2026-04-02T16:54:47.907Z</time></trkpt><trkpt lat="43.7730117" lon="11.255125"><ele>54.857142857142854</ele><time>2026-04-02T16:54:49.907Z</time></trkpt><trkpt lat="43.7730633" lon="11.2552233"><ele>54.14285714285714</ele><time>2026-04-02T16:54:52.906Z</time></trkpt><trkpt lat="43.77313" lon="11.25528"><ele>53.42857142857143</ele><time>2026-04-02T16:54:56.906Z</time></trkpt><trkpt lat="43.7731933" lon="11.25531"><ele>52.71428571428571</ele><time>2026-04-02T16:54:59.906Z</time></trkpt><trkpt lat="43.7732367" lon="11.2553833"><ele>52.0</ele><time>2026-04-02T16:55:01.906Z</time></trkpt><trkpt lat="43.7732833" lon="11.255455"><ele>51.99999999999999</ele><time>2026-04-02T16:55:03.906Z</time></trkpt><trkpt lat="43.7733217" lon="11.25553"><ele>52.0</ele><time>2026-04-02T16:55:06.906Z</time></trkpt><trkpt lat="43.773355" lon="11.2556083"><ele>52.0</ele><time>2026-04-02T16:55:11.906Z</time></trkpt><trkpt lat="43.7733733" lon="11.2557"><ele>52.0</ele><time>2026-04-02T16:55:15.906Z</time></trkpt><trkpt lat="43.773375" lon="11.2558267"><ele>51.99999999999999</ele><time>2026-04-02T16:55:18.907Z</time></trkpt><trkpt lat="43.7733833" lon="11.2559417"><ele>52.0</ele><time>2026-04-02T16:55:21.906Z</time></trkpt><trkpt lat="43.773385" lon="11.256045"><ele>52.166666666666664</ele><time>2026-04-02T16:55:23.906Z</time></trkpt><trkpt lat="43.7733783" lon="11.2561567"><ele>52.33333333333333</ele><time>2026-04-02T16:55:26.907Z</time></trkpt><trkpt lat="43.7733983" lon="11.2562517"><ele>52.5</ele><time>2026-04-02T16:55:29.907Z</time></trkpt><trkpt lat="43.773435" lon="11.2563367"><ele>52.66666666666667</ele><time>2026-04-02T16:55:32.906Z</time></trkpt><trkpt lat="43.7734917" lon="11.2564333"><ele>52.833333333333336</ele><time>2026-04-02T16:55:35.907Z</time></trkpt><trkpt lat="43.7735567" lon="11.2564933"><ele>53.0</ele><time>2026-04-02T16:55:37.907Z</time></trkpt><trkpt lat="43.77361" lon="11.256565"><ele>54.0</ele><time>2026-04-02T16:55:39.906Z</time></trkpt><trkpt lat="43.7736617" lon="11.2566283"><ele>55.0</ele><time>2026-04-02T16:55:41.907Z</time></trkpt><trkpt lat="43.7736683" lon="11.2567283"><ele>56.0</ele><time>2026-04-02T16:55:44.907Z</time></trkpt><trkpt lat="43.7736533" lon="11.25682"><ele>57.0</ele><time>2026-04-02T16:55:46.906Z</time></trkpt><trkpt lat="43.7736283" lon="11.25692"><ele>58.0</ele><time>2026-04-02T16:55:48.906Z</time></trkpt><trkpt lat="43.7735983" lon="11.2569967"><ele>59.0</ele><time>2026-04-02T16:55:50.906Z</time></trkpt><trkpt lat="43.7735533" lon="11.2570667"><ele>60.0</ele><time>2026-04-02T16:55:52.906Z</time></trkpt><trkpt lat="43.7735767" lon="11.2571567"><ele>60.0</ele><time>2026-04-02T16:55:54.906Z</time></trkpt><trkpt lat="43.7736333" lon="11.257245"><ele>60.0</ele><time>2026-04-02T16:55:56.906Z</time></trkpt><trkpt lat="43.7736933" lon="11.25729"><ele>60.0</ele><time>2026-04-02T16:55:59.906Z</time></trkpt><trkpt lat="43.773745" lon="11.2573567"><ele>60.0</ele><time>2026-04-02T16:56:02.907Z</time></trkpt><trkpt lat="43.7738117" lon="11.2574233"><ele>60.0</ele><time>2026-04-02T16:56:05.906Z</time></trkpt><trkpt lat="43.77388" lon="11.257445"><ele>60.0</ele><time>2026-04-02T16:56:07.906Z</time></trkpt><trkpt lat="43.77395" lon="11.2575267"><ele>60.333333333333336</ele><time>2026-04-02T16:56:10.907Z</time></trkpt><trkpt lat="43.7740267" lon="11.2575783"><ele>60.66666666666667</ele><time>2026-04-02T16:56:13.907Z</time></trkpt><trkpt lat="43.77409" lon="11.2576183"><ele>61.0</ele><time>2026-04-02T16:56:18.907Z</time></trkpt><trkpt lat="43.7741333" lon="11.2577167"><ele>61.333333333333336</ele><time>2026-04-02T16:56:21.906Z</time></trkpt><trkpt lat="43.77418" lon="11.2578283"><ele>61.66666666666667</ele><time>2026-04-02T16:56:23.907Z</time></trkpt><trkpt lat="43.7742217" lon="11.2579417"><ele>62.0</ele><time>2026-04-02T16:56:25.907Z</time></trkpt><trkpt lat="43.7742483" lon="11.25803"><ele>61.714285714285715</ele><time>2026-04-02T16:56:27.906Z</time></trkpt><trkpt lat="43.7742883" lon="11.2581333"><ele>61.42857142857143</ele><time>2026-04-02T16:56:30.907Z</time></trkpt><trkpt lat="43.77435" lon="11.2581883"><ele>61.142857142857146</ele><time>2026-04-02T16:56:33.906Z</time></trkpt><trkpt lat="43.774415" lon="11.2582033"><ele>60.85714285714286</ele><time>2026-04-02T16:56:35.906Z</time></trkpt><trkpt lat="43.774475" lon="11.2582467"><ele>60.57142857142857</ele><time>2026-04-02T16:56:37.907Z</time></trkpt><trkpt lat="43.774545" lon="11.2583033"><ele>60.28571428571429</ele><time>2026-04-02T16:56:39.906Z</time></trkpt><trkpt lat="43.7745983" lon="11.258365"><ele>60.0</ele><time>2026-04-02T16:56:41.907Z</time></trkpt><trkpt lat="43.7746467" lon="11.2584383"><ele>60.0</ele><time>2026-04-02T16:56:43.906Z</time></trkpt><trkpt lat="43.7747317" lon="11.2585333"><ele>60.0</ele><time>2026-04-02T16:56:46.907Z</time></trkpt><trkpt lat="43.77479" lon="11.2586133"><ele>60.0</ele><time>2026-04-02T16:56:48.906Z</time></trkpt><trkpt lat="43.77485" lon="11.2586867"><ele>60.0</ele><time>2026-04-02T16:56:51.906Z</time></trkpt><trkpt lat="43.774895" lon="11.2587867"><ele>60.0</ele><time>2026-04-02T16:56:55.906Z</time></trkpt><trkpt lat="43.7749083" lon="11.25889"><ele>60.0</ele><time>2026-04-02T16:56:59.906Z</time></trkpt><trkpt lat="43.7749767" lon="11.2589717"><ele>60.0</ele><time>2026-04-02T16:57:01.906Z</time></trkpt><trkpt lat="43.7750383" lon="11.2590767"><ele>60.0</ele><time>2026-04-02T16:57:03.907Z</time></trkpt><trkpt lat="43.7751317" lon="11.2591683"><ele>60.0</ele><time>2026-04-02T16:57:05.907Z</time></trkpt><trkpt lat="43.7752017" lon="11.25925"><ele>60.0</ele><time>2026-04-02T16:57:07.907Z</time></trkpt><trkpt lat="43.7752433" lon="11.259325"><ele>60.0</ele><time>2026-04-02T16:57:09.906Z</time></trkpt><trkpt lat="43.7752883" lon="11.2593917"><ele>60.0</ele><time>2026-04-02T16:57:11.907Z</time></trkpt><trkpt lat="43.7753367" lon="11.259455"><ele>60.0</ele><time>2026-04-02T16:57:13.906Z</time></trkpt><trkpt lat="43.7753883" lon="11.2595183"><ele>60.0</ele><time>2026-04-02T16:57:15.906Z</time></trkpt><trkpt lat="43.775455" lon="11.2595817"><ele>60.0</ele><time>2026-04-02T16:57:18.906Z</time></trkpt><trkpt lat="43.7754867" lon="11.2596667"><ele>60.0</ele><time>2026-04-02T16:57:24.906Z</time></trkpt><trkpt lat="43.7755683" lon="11.2596833"><ele>60.0</ele><time>2026-04-02T16:57:28.907Z</time></trkpt><trkpt lat="43.7756333" lon="11.2597567"><ele>60.0</ele><time>2026-04-02T16:57:32.906Z</time></trkpt><trkpt lat="43.7755983" lon="11.2598417"><ele>60.142857142857146</ele><time>2026-04-02T16:57:35.906Z</time></trkpt><trkpt lat="43.7755433" lon="11.2598867"><ele>60.28571428571428</ele><time>2026-04-02T16:57:37.906Z</time></trkpt><trkpt lat="43.775485" lon="11.2599717"><ele>60.42857142857142</ele><time>2026-04-02T16:57:40.907Z</time></trkpt><trkpt lat="43.7754867" lon="11.2600867"><ele>60.57142857142857</ele><time>2026-04-02T16:57:42.907Z</time></trkpt><trkpt lat="43.77549" lon="11.26018"><ele>60.71428571428571</ele><time>2026-04-02T16:57:44.906Z</time></trkpt><trkpt lat="43.7755017" lon="11.2602867"><ele>60.85714285714285</ele><time>2026-04-02T16:57:47.906Z</time></trkpt><trkpt lat="43.7754917" lon="11.2603783"><ele>60.99999999999999</ele><time>2026-04-02T16:57:51.906Z</time></trkpt><trkpt lat="43.775455" lon="11.2604633"><ele>60.99999999999999</ele><time>2026-04-02T16:57:54.906Z</time></trkpt><trkpt lat="43.7754133" lon="11.26053"><ele>61.0</ele><time>2026-04-02T16:57:57.906Z</time></trkpt><trkpt lat="43.7753533" lon="11.2606067"><ele>60.99999999999999</ele><time>2026-04-02T16:58:00.906Z</time></trkpt><trkpt lat="43.77531" lon="11.260685"><ele>60.99999999999999</ele><time>2026-04-02T16:58:03.906Z</time></trkpt><trkpt lat="43.775275" lon="11.2607917"><ele>61.0</ele><time>2026-04-02T16:58:06.906Z</time></trkpt><trkpt lat="43.7752283" lon="11.260865"><ele>60.99999999999999</ele><time>2026-04-02T16:58:08.907Z</time></trkpt><trkpt lat="43.7751733" lon="11.2609367"><ele>60.99999999999999</ele><time>2026-04-02T16:58:10.906Z</time></trkpt><trkpt lat="43.77511" lon="11.26101"><ele>59.83333333333333</ele><time>2026-04-02T16:58:12.906Z</time></trkpt><trkpt lat="43.7750417" lon="11.2610833"><ele>58.666666666666664</ele><time>2026-04-02T16:58:14.907Z</time></trkpt><trkpt lat="43.7749633" lon="11.2611533"><ele>57.5</ele><time>2026-04-02T16:58:16.906Z</time></trkpt><trkpt lat="43.7749183" lon="11.2612433"><ele>56.33333333333333</ele><time>2026-04-02T16:58:18.906Z</time></trkpt><trkpt lat="43.77488" lon="11.2613417"><ele>55.166666666666664</ele><time>2026-04-02T16:58:20.906Z</time></trkpt><trkpt lat="43.774835" lon="11.2614367"><ele>54.0</ele><time>2026-04-02T16:58:22.906Z</time></trkpt><trkpt lat="43.7747933" lon="11.26153"><ele>54.0</ele><time>2026-04-02T16:58:24.907Z</time></trkpt><trkpt lat="43.7747267" lon="11.261635"><ele>54.00000000000001</ele><time>2026-04-02T16:58:26.907Z</time></trkpt><trkpt lat="43.77466" lon="11.2617467"><ele>54.00000000000001</ele><time>2026-04-02T16:58:28.907Z</time></trkpt><trkpt lat="43.7746183" lon="11.2618517"><ele>54.0</ele><time>2026-04-02T16:58:30.906Z</time></trkpt><trkpt lat="43.7745817" lon="11.261955"><ele>54.0</ele><time>2026-04-02T16:58:32.906Z</time></trkpt><trkpt lat="43.7745317" lon="11.2620533"><ele>54.0</ele><time>2026-04-02T16:58:35.907Z</time></trkpt><trkpt lat="43.774475" lon="11.2621483"><ele>54.0</ele><time>2026-04-02T16:58:38.906Z</time></trkpt><trkpt lat="43.7744767" lon="11.26226"><ele>54.0</ele><time>2026-04-02T16:58:41.906Z</time></trkpt><trkpt lat="43.7745367" lon="11.2623233"><ele>54.0</ele><time>2026-04-02T16:58:44.906Z</time></trkpt><trkpt lat="43.7745983" lon="11.2623867"><ele>54.0</ele><time>2026-04-02T16:58:48.906Z</time></trkpt><trkpt lat="43.7746533" lon="11.262435"><ele>54.0</ele><time>2026-04-02T17:00:37.906Z</time></trkpt><trkpt lat="43.774605" lon="11.2624983"><ele>54.333333333333336</ele><time>2026-04-02T17:04:12.906Z</time></trkpt><trkpt lat="43.7746583" lon="11.262435"><ele>54.66666666666667</ele><time>2026-04-02T17:05:45.906Z</time></trkpt><trkpt lat="43.7747417" lon="11.2624283"><ele>55.0</ele><time>2026-04-02T17:09:46.907Z</time></trkpt><trkpt lat="43.7746683" lon="11.2624933"><ele>55.333333333333336</ele><time>2026-04-02T17:11:46.907Z</time></trkpt><trkpt lat="43.77463" lon="11.262375"><ele>55.66666666666667</ele><time>2026-04-02T17:15:07.906Z</time></trkpt><trkpt lat="43.7745718" lon="11.2623333"><ele>56.0</ele><time>2026-04-02T17:15:14.906Z</time></trkpt><trkpt lat="43.7745032" lon="11.2623218"><ele>56.0</ele><time>2026-04-02T17:15:27.906Z</time></trkpt><trkpt lat="43.7744386" lon="11.2622924"><ele>56.0</ele><time>2026-04-02T17:15:39.906Z</time></trkpt><trkpt lat="43.7744426" lon="11.2623868"><ele>56.0</ele><time>2026-04-02T17:16:18.906Z</time></trkpt><trkpt lat="43.7744391" lon="11.2624866"><ele>56.0</ele><time>2026-04-02T17:16:21.906Z</time></trkpt><trkpt lat="43.7744231" lon="11.2625755"><ele>56.0</ele><time>2026-04-02T17:16:25.906Z</time></trkpt><trkpt lat="43.7744018" lon="11.2626594"><ele>56.0</ele><time>2026-04-02T17:16:34.906Z</time></trkpt><trkpt lat="43.7743875" lon="11.2627496"><ele>56.0</ele><time>2026-04-02T17:16:39.907Z</time></trkpt><trkpt lat="43.7743347" lon="11.2628154"><ele>56.16666666666667</ele><time>2026-04-02T17:16:44.906Z</time></trkpt><trkpt lat="43.7742819" lon="11.2628877"><ele>56.333333333333336</ele><time>2026-04-02T17:16:47.906Z</time></trkpt><trkpt lat="43.7742233" lon="11.2629709"><ele>56.5</ele><time>2026-04-02T17:16:50.907Z</time></trkpt><trkpt lat="43.7741712" lon="11.2630459"><ele>56.66666666666667</ele><time>2026-04-02T17:16:54.906Z</time></trkpt><trkpt lat="43.7741361" lon="11.2631199"><ele>56.833333333333336</ele><time>2026-04-02T17:16:59.907Z</time></trkpt><trkpt lat="43.7741239" lon="11.2629746"><ele>57.0</ele><time>2026-04-02T17:17:41.323Z</time></trkpt><trkpt lat="43.7736117" lon="11.2624767"><ele>57.0</ele><time>2026-04-02T17:26:42.923Z</time></trkpt><trkpt lat="43.7736767" lon="11.2626283"><ele>57.0</ele><time>2026-04-02T17:26:46.923Z</time></trkpt><trkpt lat="43.7737417" lon="11.2627167"><ele>57.0</ele><time>2026-04-02T17:26:48.923Z</time></trkpt><trkpt lat="43.77377" lon="11.2628317"><ele>57.0</ele><time>2026-04-02T17:26:51.923Z</time></trkpt><trkpt lat="43.7737933" lon="11.262915"><ele>57.0</ele><time>2026-04-02T17:26:55.923Z</time></trkpt><trkpt lat="43.7737283" lon="11.262905"><ele>57.0</ele><time>2026-04-02T17:27:15.924Z</time></trkpt><trkpt lat="43.7737783" lon="11.2629717"><ele>57.0</ele><time>2026-04-02T17:28:20.923Z</time></trkpt><trkpt lat="43.773835" lon="11.26289"><ele>57.0</ele><time>2026-04-02T17:30:36.925Z</time></trkpt><trkpt lat="43.7739717" lon="11.2629533"><ele>57.0</ele><time>2026-04-02T17:30:45.925Z</time></trkpt><trkpt lat="43.7740183" lon="11.2628883"><ele>57.0</ele><time>2026-04-02T17:30:53.924Z</time></trkpt><trkpt lat="43.77412" lon="11.2628567"><ele>57.0</ele><time>2026-04-02T17:31:06.925Z</time></trkpt><trkpt lat="43.7742417" lon="11.262815"><ele>57.0</ele><time>2026-04-02T17:31:11.924Z</time></trkpt><trkpt lat="43.774295" lon="11.2627483"><ele>57.0</ele><time>2026-04-02T17:31:18.924Z</time></trkpt><trkpt lat="43.774225" lon="11.262765"><ele>57.0</ele><time>2026-04-02T17:31:23.925Z</time></trkpt><trkpt lat="43.77415" lon="11.2628133"><ele>57.0</ele><time>2026-04-02T17:31:26.924Z</time></trkpt><trkpt lat="43.77409" lon="11.26276"><ele>57.0</ele><time>2026-04-02T17:32:04.923Z</time></trkpt><trkpt lat="43.7740167" lon="11.26279"><ele>57.0</ele><time>2026-04-02T17:32:08.923Z</time></trkpt><trkpt lat="43.7740767" lon="11.2631117"><ele>57.0</ele><time>2026-04-02T17:32:24.923Z</time></trkpt><trkpt lat="43.7741633" lon="11.262985"><ele>57.0</ele><time>2026-04-02T17:32:36.923Z</time></trkpt><trkpt lat="43.7742333" lon="11.262995"><ele>57.0</ele><time>2026-04-02T17:32:45.923Z</time></trkpt><trkpt lat="43.7741783" lon="11.2631183"><ele>57.0</ele><time>2026-04-02T17:32:49.924Z</time></trkpt><trkpt lat="43.7740833" lon="11.26307"><ele>57.0</ele><time>2026-04-02T17:32:58.923Z</time></trkpt><trkpt lat="43.7741507" lon="11.2628961"><ele>57.0</ele><time>2026-04-02T17:33:23.588Z</time></trkpt><trkpt lat="43.7740983" lon="11.2631333"><ele>57.0</ele><time>2026-04-02T17:36:06.925Z</time></trkpt><trkpt lat="43.7740683" lon="11.2630483"><ele>57.0</ele><time>2026-04-02T17:36:12.924Z</time></trkpt><trkpt lat="43.7740583" lon="11.2629567"><ele>57.0</ele><time>2026-04-02T17:36:15.925Z</time></trkpt><trkpt lat="43.7741" lon="11.2628467"><ele>57.0</ele><time>2026-04-02T17:36:16.925Z</time></trkpt><trkpt lat="43.7740267" lon="11.2628717"><ele>57.0</ele><time>2026-04-02T17:36:39.924Z</time></trkpt><trkpt lat="43.773955" lon="11.2627517"><ele>57.0</ele><time>2026-04-02T17:36:42.924Z</time></trkpt><trkpt lat="43.77391" lon="11.2626867"><ele>57.0</ele><time>2026-04-02T17:36:46.925Z</time></trkpt><trkpt lat="43.773915" lon="11.262775"><ele>57.0</ele><time>2026-04-02T17:37:40.924Z</time></trkpt><trkpt lat="43.7741482" lon="11.2628914"><ele>57.0</ele><time>2026-04-02T17:39:55.283Z</time></trkpt><trkpt lat="43.7739617" lon="11.26283"><ele>57.0</ele><time>2026-04-02T17:40:04.921Z</time></trkpt><trkpt lat="43.7743383" lon="11.2629433"><ele>57.0</ele><time>2026-04-02T17:41:16.91Z</time></trkpt><trkpt lat="43.7742567" lon="11.2629483"><ele>57.0</ele><time>2026-04-02T17:41:21.91Z</time></trkpt><trkpt lat="43.77418" lon="11.2628983"><ele>57.0</ele><time>2026-04-02T17:41:36.911Z</time></trkpt><trkpt lat="43.7741167" lon="11.262845"><ele>57.0</ele><time>2026-04-02T17:41:40.911Z</time></trkpt><trkpt lat="43.7740483" lon="11.26288"><ele>57.0</ele><time>2026-04-02T17:41:52.91Z</time></trkpt><trkpt lat="43.773985" lon="11.2628417"><ele>57.0</ele><time>2026-04-02T17:42:02.91Z</time></trkpt><trkpt lat="43.7739067" lon="11.2628533"><ele>57.0</ele><time>2026-04-02T17:42:11.91Z</time></trkpt><trkpt lat="43.773855" lon="11.262915"><ele>57.0</ele><time>2026-04-02T17:42:14.91Z</time></trkpt><trkpt lat="43.7738267" lon="11.2630083"><ele>57.0</ele><time>2026-04-02T17:42:43.91Z</time></trkpt><trkpt lat="43.77377" lon="11.2629667"><ele>57.0</ele><time>2026-04-02T17:44:16.91Z</time></trkpt><trkpt lat="43.7741432" lon="11.2628839"><ele>57.0</ele><time>2026-04-02T17:47:17.076Z</time></trkpt><trkpt lat="43.7738883" lon="11.26254"><ele>57.0</ele><time>2026-04-02T17:52:49.923Z</time></trkpt><trkpt lat="43.7739667" lon="11.2627067"><ele>57.0</ele><time>2026-04-02T17:53:01.925Z</time></trkpt><trkpt lat="43.773955" lon="11.2628083"><ele>57.0</ele><time>2026-04-02T17:53:03.924Z</time></trkpt><trkpt lat="43.77397" lon="11.26291"><ele>57.0</ele><time>2026-04-02T17:53:06.924Z</time></trkpt><trkpt lat="43.7740267" lon="11.2629867"><ele>57.0</ele><time>2026-04-02T17:53:09.925Z</time></trkpt><trkpt lat="43.77409" lon="11.2631283"><ele>57.0</ele><time>2026-04-02T17:53:11.924Z</time></trkpt><trkpt lat="43.7741133" lon="11.263235"><ele>57.0</ele><time>2026-04-02T17:53:12.924Z</time></trkpt><trkpt lat="43.7741683" lon="11.2633483"><ele>57.2</ele><time>2026-04-02T17:53:14.924Z</time></trkpt><trkpt lat="43.774205" lon="11.2634817"><ele>57.400000000000006</ele><time>2026-04-02T17:53:17.924Z</time></trkpt><trkpt lat="43.77423" lon="11.26358"><ele>57.599999999999994</ele><time>2026-04-02T17:53:19.924Z</time></trkpt><trkpt lat="43.774195" lon="11.2634517"><ele>57.8</ele><time>2026-04-02T17:53:28.924Z</time></trkpt><trkpt lat="43.7741767" lon="11.26336"><ele>58.0</ele><time>2026-04-02T17:53:32.925Z</time></trkpt><trkpt lat="43.774135" lon="11.2632217"><ele>57.99999999999999</ele><time>2026-04-02T17:53:35.924Z</time></trkpt><trkpt lat="43.774175" lon="11.2631467"><ele>58.0</ele><time>2026-04-02T17:53:47.924Z</time></trkpt><trkpt lat="43.774155" lon="11.263025"><ele>58.0</ele><time>2026-04-02T17:53:49.924Z</time></trkpt><trkpt lat="43.7741383" lon="11.2629133"><ele>58.0</ele><time>2026-04-02T17:53:54.924Z</time></trkpt><trkpt lat="43.7741283" lon="11.2627917"><ele>57.99999999999999</ele><time>2026-04-02T17:54:19.924Z</time></trkpt><trkpt lat="43.7740967" lon="11.2627"><ele>58.0</ele><time>2026-04-02T17:54:21.924Z</time></trkpt><trkpt lat="43.774085" lon="11.2626117"><ele>57.8</ele><time>2026-04-02T17:54:24.924Z</time></trkpt><trkpt lat="43.7740867" lon="11.2624967"><ele>57.599999999999994</ele><time>2026-04-02T17:54:27.924Z</time></trkpt><trkpt lat="43.7740733" lon="11.26238"><ele>57.400000000000006</ele><time>2026-04-02T17:54:30.925Z</time></trkpt><trkpt lat="43.77401" lon="11.2625433"><ele>57.2</ele><time>2026-04-02T17:54:40.925Z</time></trkpt><trkpt lat="43.7740033" lon="11.2626767"><ele>57.0</ele><time>2026-04-02T17:54:42.924Z</time></trkpt><trkpt lat="43.774005" lon="11.2628033"><ele>57.0</ele><time>2026-04-02T17:54:44.924Z</time></trkpt><trkpt lat="43.7740617" lon="11.2628433"><ele>56.99999999999999</ele><time>2026-04-02T17:54:48.925Z</time></trkpt><trkpt lat="43.7741217" lon="11.2629083"><ele>57.0</ele><time>2026-04-02T17:55:25.924Z</time></trkpt><trkpt lat="43.7741033" lon="11.263"><ele>57.0</ele><time>2026-04-02T17:55:28.924Z</time></trkpt><trkpt lat="43.77403" lon="11.26302"><ele>56.99999999999999</ele><time>2026-04-02T17:55:35.925Z</time></trkpt><trkpt lat="43.7740017" lon="11.2629183"><ele>57.0</ele><time>2026-04-02T17:55:36.925Z</time></trkpt><trkpt lat="43.77399" lon="11.2628167"><ele>57.0</ele><time>2026-04-02T17:55:38.924Z</time></trkpt><trkpt lat="43.7739683" lon="11.26273"><ele>57.0</ele><time>2026-04-02T17:55:41.924Z</time></trkpt><trkpt lat="43.7739067" lon="11.2627717"><ele>57.0</ele><time>2026-04-02T17:55:55.924Z</time></trkpt><trkpt lat="43.77394" lon="11.2628667"><ele>57.0</ele><time>2026-04-02T17:56:01.924Z</time></trkpt><trkpt lat="43.7740033" lon="11.2629917"><ele>57.0</ele><time>2026-04-02T17:56:08.925Z</time></trkpt><trkpt lat="43.7740567" lon="11.2630433"><ele>57.0</ele><time>2026-04-02T17:56:09.924Z</time></trkpt><trkpt lat="43.774105" lon="11.2631217"><ele>57.0</ele><time>2026-04-02T17:56:11.925Z</time></trkpt><trkpt lat="43.774125" lon="11.2632133"><ele>57.0</ele><time>2026-04-02T17:56:15.925Z</time></trkpt><trkpt lat="43.7741733" lon="11.26329"><ele>57.0</ele><time>2026-04-02T17:56:20.924Z</time></trkpt><trkpt lat="43.7741957" lon="11.262859"><ele>57.0</ele><time>2026-04-02T17:56:58.732Z</time></trkpt><trkpt lat="43.7730117" lon="11.26141"><ele>57.0</ele><time>2026-04-02T17:58:14.922Z</time></trkpt><trkpt lat="43.77309" lon="11.261415"><ele>57.0</ele><time>2026-04-02T17:58:18.922Z</time></trkpt><trkpt lat="43.7741694" lon="11.2628702"><ele>59.0</ele><time>2026-04-02T17:58:27.565Z</time></trkpt><trkpt lat="43.77333" lon="11.2623333"><ele>59.0</ele><time>2026-04-02T18:01:02.922Z</time></trkpt><trkpt lat="43.7733" lon="11.26243"><ele>59.0</ele><time>2026-04-02T18:01:11.922Z</time></trkpt><trkpt lat="43.7734167" lon="11.2625167"><ele>59.0</ele><time>2026-04-02T18:01:20.922Z</time></trkpt><trkpt lat="43.77359" lon="11.2626567"><ele>59.0</ele><time>2026-04-02T18:01:21.923Z</time></trkpt><trkpt lat="43.773435" lon="11.262545"><ele>59.0</ele><time>2026-04-02T18:01:23.923Z</time></trkpt><trkpt lat="43.773495" lon="11.2625983"><ele>59.0</ele><time>2026-04-02T18:01:56.922Z</time></trkpt><trkpt lat="43.77348" lon="11.2625083"><ele>59.0</ele><time>2026-04-02T18:02:50.922Z</time></trkpt><trkpt lat="43.7735683" lon="11.26248"><ele>59.0</ele><time>2026-04-02T18:03:38.922Z</time></trkpt><trkpt lat="43.7735517" lon="11.262565"><ele>59.0</ele><time>2026-04-02T18:04:05.922Z</time></trkpt><trkpt lat="43.773595" lon="11.2626433"><ele>59.0</ele><time>2026-04-02T18:04:39.923Z</time></trkpt><trkpt lat="43.7735533" lon="11.26271"><ele>59.0</ele><time>2026-04-02T18:05:17.922Z</time></trkpt><trkpt lat="43.7736083" lon="11.2627667"><ele>58.857142857142854</ele><time>2026-04-02T18:05:23.922Z</time></trkpt><trkpt lat="43.7736033" lon="11.2628817"><ele>58.71428571428572</ele><time>2026-04-02T18:05:46.922Z</time></trkpt><trkpt lat="43.7735883" lon="11.2629733"><ele>58.57142857142858</ele><time>2026-04-02T18:05:48.923Z</time></trkpt><trkpt lat="43.7735717" lon="11.2630583"><ele>58.42857142857143</ele><time>2026-04-02T18:05:51.922Z</time></trkpt><trkpt lat="43.7736083" lon="11.26315"><ele>58.28571428571429</ele><time>2026-04-02T18:06:00.923Z</time></trkpt><trkpt lat="43.7736117" lon="11.2632533"><ele>58.14285714285715</ele><time>2026-04-02T18:06:04.922Z</time></trkpt><trkpt lat="43.7736883" lon="11.2632517"><ele>58.00000000000001</ele><time>2026-04-02T18:06:52.923Z</time></trkpt><trkpt lat="43.7741421" lon="11.262911"><ele>59.0</ele><time>2026-04-02T18:07:05.616Z</time></trkpt><trkpt lat="43.7734133" lon="11.2629933"><ele>59.0</ele><time>2026-04-02T18:15:37.924Z</time></trkpt><trkpt lat="43.7734833" lon="11.263075"><ele>59.0</ele><time>2026-04-02T18:15:49.923Z</time></trkpt><trkpt lat="43.7738733" lon="11.2630733"><ele>58.333333333333336</ele><time>2026-04-02T18:16:36.923Z</time></trkpt><trkpt lat="43.7739283" lon="11.2630217"><ele>57.66666666666667</ele><time>2026-04-02T18:16:41.923Z</time></trkpt><trkpt lat="43.7741949" lon="11.2628559"><ele>57.0</ele><time>2026-04-02T18:16:50.648Z</time></trkpt><trkpt lat="43.7741667" lon="11.2624283"><ele>57.0</ele><time>2026-04-02T18:17:15.92Z</time></trkpt><trkpt lat="43.774155" lon="11.2625267"><ele>57.0</ele><time>2026-04-02T18:17:30.92Z</time></trkpt><trkpt lat="43.7742267" lon="11.2626"><ele>57.0</ele><time>2026-04-02T18:17:51.92Z</time></trkpt><trkpt lat="43.7741267" lon="11.2627467"><ele>57.0</ele><time>2026-04-02T18:17:57.92Z</time></trkpt><trkpt lat="43.7741067" lon="11.2628567"><ele>57.0</ele><time>2026-04-02T18:17:59.92Z</time></trkpt><trkpt lat="43.774145" lon="11.2629283"><ele>57.0</ele><time>2026-04-02T18:18:56.92Z</time></trkpt><trkpt lat="43.7741233" lon="11.263015"><ele>57.0</ele><time>2026-04-02T18:21:31.92Z</time></trkpt><trkpt lat="43.77417" lon="11.2631067"><ele>57.0</ele><time>2026-04-02T18:23:20.921Z</time></trkpt><trkpt lat="43.77409" lon="11.263045"><ele>57.0</ele><time>2026-04-02T18:23:38.921Z</time></trkpt><trkpt lat="43.7741843" lon="11.2628731"><ele>57.0</ele><time>2026-04-02T18:25:09.639Z</time></trkpt><trkpt lat="43.7742417" lon="11.2630683"><ele>57.0</ele><time>2026-04-02T18:26:41.922Z</time></trkpt><trkpt lat="43.77418" lon="11.2630917"><ele>56.99999999999999</ele><time>2026-04-02T18:27:29.922Z</time></trkpt><trkpt lat="43.774135" lon="11.263025"><ele>57.0</ele><time>2026-04-02T18:27:48.922Z</time></trkpt><trkpt lat="43.7741117" lon="11.2631067"><ele>57.0</ele><time>2026-04-02T18:28:03.922Z</time></trkpt><trkpt lat="43.77406" lon="11.2631583"><ele>56.99999999999999</ele><time>2026-04-02T18:28:16.923Z</time></trkpt><trkpt lat="43.774005" lon="11.2632133"><ele>57.0</ele><time>2026-04-02T18:28:36.922Z</time></trkpt><trkpt lat="43.7739883" lon="11.2632983"><ele>57.0</ele><time>2026-04-02T18:30:05.922Z</time></trkpt><trkpt lat="43.774085" lon="11.2633283"><ele>57.0</ele><time>2026-04-02T18:31:16.922Z</time></trkpt><trkpt lat="43.774175" lon="11.2632267"><ele>57.0</ele><time>2026-04-02T18:31:36.924Z</time></trkpt><trkpt lat="43.7741317" lon="11.263065"><ele>57.0</ele><time>2026-04-02T18:31:38.924Z</time></trkpt><trkpt lat="43.77412" lon="11.2629417"><ele>57.0</ele><time>2026-04-02T18:31:40.924Z</time></trkpt><trkpt lat="43.7740983" lon="11.262845"><ele>57.0</ele><time>2026-04-02T18:31:43.924Z</time></trkpt><trkpt lat="43.774075" lon="11.26276"><ele>57.0</ele><time>2026-04-02T18:31:46.924Z</time></trkpt><trkpt lat="43.7740783" lon="11.2628917"><ele>57.0</ele><time>2026-04-02T18:31:55.924Z</time></trkpt><trkpt lat="43.774105" lon="11.2629817"><ele>57.0</ele><time>2026-04-02T18:31:57.924Z</time></trkpt><trkpt lat="43.7741417" lon="11.2630567"><ele>57.0</ele><time>2026-04-02T18:32:00.924Z</time></trkpt><trkpt lat="43.7740967" lon="11.2631267"><ele>57.0</ele><time>2026-04-02T18:32:11.924Z</time></trkpt><trkpt lat="43.77408" lon="11.2632117"><ele>57.0</ele><time>2026-04-02T18:32:22.925Z</time></trkpt><trkpt lat="43.7740567" lon="11.2630867"><ele>57.14285714285714</ele><time>2026-04-02T18:32:24.924Z</time></trkpt><trkpt lat="43.7741083" lon="11.2631533"><ele>57.28571428571428</ele><time>2026-04-02T18:32:29.924Z</time></trkpt><trkpt lat="43.77417" lon="11.2631783"><ele>57.42857142857143</ele><time>2026-04-02T18:32:32.925Z</time></trkpt><trkpt lat="43.7742333" lon="11.2631933"><ele>57.57142857142857</ele><time>2026-04-02T18:32:37.924Z</time></trkpt><trkpt lat="43.7742383" lon="11.2632817"><ele>57.714285714285715</ele><time>2026-04-02T18:32:44.924Z</time></trkpt><trkpt lat="43.7741767" lon="11.26336"><ele>57.85714285714286</ele><time>2026-04-02T18:32:50.924Z</time></trkpt><trkpt lat="43.77414" lon="11.2634317"><ele>58.00000000000001</ele><time>2026-04-02T18:32:55.925Z</time></trkpt><trkpt lat="43.7740617" lon="11.2634183"><ele>58.0</ele><time>2026-04-02T18:33:00.925Z</time></trkpt><trkpt lat="43.7740233" lon="11.2633133"><ele>58.0</ele><time>2026-04-02T18:33:02.924Z</time></trkpt><trkpt lat="43.7740617" lon="11.26323"><ele>58.0</ele><time>2026-04-02T18:34:23.925Z</time></trkpt><trkpt lat="43.7741946" lon="11.2628392"><ele>57.0</ele><time>2026-04-02T18:35:31.517Z</time></trkpt></trkseg></trk></gpx>